<?xml version="1.0" encoding="UTF-8" standalone="no" ?>
<gpx xmlns="http://www.topografix.com/GPX/1/1" xmlns:xsi="http://www.w3.org/2001/XMLSchema-instance" xsi:schemaLocation="http://www.topografix.com/GPX/1/1 http://www.topografix.com/GPX/1/1/gpx.xsd" version="1.1" creator="VisuGPX - https://www.visugpx.com">
  <metadata>
    <name>Clamart-Chatillon T6</name>
    <desc><![CDATA[Clamart-Chatillon T6 - 10km-100m]]></desc>
  </metadata>
  <trk>
    <name><![CDATA[2016-01-17 12:09:36]]></name>
    <trkseg>
      <trkpt lat="48.78675" lon="2.24429">
        <ele>160.74</ele>
        <time>2016-01-17T07:54:08Z</time>
      </trkpt>
      <trkpt lat="48.78679" lon="2.24442">
        <ele>160.31</ele>
        <time>2016-01-17T07:54:28Z</time>
      </trkpt>
      <trkpt lat="48.7868" lon="2.24446">
        <ele>160.27</ele>
        <time>2016-01-17T07:54:31Z</time>
      </trkpt>
      <trkpt lat="48.78686" lon="2.24466">
        <ele>160.12</ele>
        <time>2016-01-17T07:54:44Z</time>
      </trkpt>
      <trkpt lat="48.78694" lon="2.24489">
        <ele>160.04</ele>
        <time>2016-01-17T07:55:00Z</time>
      </trkpt>
      <trkpt lat="48.78704" lon="2.24502">
        <ele>159.91</ele>
        <time>2016-01-17T07:55:15Z</time>
      </trkpt>
      <trkpt lat="48.78714" lon="2.24517">
        <ele>159.86</ele>
        <time>2016-01-17T07:55:28Z</time>
      </trkpt>
      <trkpt lat="48.78733" lon="2.24534">
        <ele>159.75</ele>
        <time>2016-01-17T07:55:52Z</time>
      </trkpt>
      <trkpt lat="48.78737" lon="2.24534">
        <ele>159.97</ele>
        <time>2016-01-17T07:56:19Z</time>
      </trkpt>
      <trkpt lat="48.78739" lon="2.24532">
        <ele>160.17</ele>
        <time>2016-01-17T07:56:40Z</time>
      </trkpt>
      <trkpt lat="48.78738" lon="2.24535">
        <ele>160.31</ele>
        <time>2016-01-17T07:57:07Z</time>
      </trkpt>
      <trkpt lat="48.78747" lon="2.2456">
        <ele>160.31</ele>
        <time>2016-01-17T07:57:28Z</time>
      </trkpt>
      <trkpt lat="48.78752" lon="2.24594">
        <ele>159.9</ele>
        <time>2016-01-17T07:57:50Z</time>
      </trkpt>
      <trkpt lat="48.7875" lon="2.24611">
        <ele>159.97</ele>
        <time>2016-01-17T07:58:01Z</time>
      </trkpt>
      <trkpt lat="48.78749" lon="2.24618">
        <ele>160.04</ele>
        <time>2016-01-17T07:58:05Z</time>
      </trkpt>
      <trkpt lat="48.78743" lon="2.24643">
        <ele>159.9</ele>
        <time>2016-01-17T07:58:21Z</time>
      </trkpt>
      <trkpt lat="48.78738" lon="2.24664">
        <ele>159.89</ele>
        <time>2016-01-17T07:58:35Z</time>
      </trkpt>
      <trkpt lat="48.78738" lon="2.24666">
        <ele>159.88</ele>
        <time>2016-01-17T07:58:36Z</time>
      </trkpt>
      <trkpt lat="48.78742" lon="2.24679">
        <ele>160.03</ele>
        <time>2016-01-17T07:58:45Z</time>
      </trkpt>
      <trkpt lat="48.7875" lon="2.24696">
        <ele>159.94</ele>
        <time>2016-01-17T07:58:57Z</time>
      </trkpt>
      <trkpt lat="48.78751" lon="2.24711">
        <ele>159.82</ele>
        <time>2016-01-17T07:59:07Z</time>
      </trkpt>
      <trkpt lat="48.78754" lon="2.24732">
        <ele>160.42</ele>
        <time>2016-01-17T07:59:19Z</time>
      </trkpt>
      <trkpt lat="48.78767" lon="2.24769">
        <ele>160.5</ele>
        <time>2016-01-17T07:59:44Z</time>
      </trkpt>
      <trkpt lat="48.78777" lon="2.24791">
        <ele>161.25</ele>
        <time>2016-01-17T08:00:04Z</time>
      </trkpt>
      <trkpt lat="48.78784" lon="2.24809">
        <ele>161.32</ele>
        <time>2016-01-17T08:00:16Z</time>
      </trkpt>
      <trkpt lat="48.78786" lon="2.24813">
        <ele>161.38</ele>
        <time>2016-01-17T08:00:19Z</time>
      </trkpt>
      <trkpt lat="48.78798" lon="2.24838">
        <ele>161.68</ele>
        <time>2016-01-17T08:00:37Z</time>
      </trkpt>
      <trkpt lat="48.78807" lon="2.24861">
        <ele>161.28</ele>
        <time>2016-01-17T08:00:51Z</time>
      </trkpt>
      <trkpt lat="48.78823" lon="2.24902">
        <ele>160.95</ele>
        <time>2016-01-17T08:01:14Z</time>
      </trkpt>
      <trkpt lat="48.78837" lon="2.24939">
        <ele>161</ele>
        <time>2016-01-17T08:01:40Z</time>
      </trkpt>
      <trkpt lat="48.78854" lon="2.24973">
        <ele>160.73</ele>
        <time>2016-01-17T08:02:05Z</time>
      </trkpt>
      <trkpt lat="48.78867" lon="2.25007">
        <ele>160.77</ele>
        <time>2016-01-17T08:02:26Z</time>
      </trkpt>
      <trkpt lat="48.78882" lon="2.25049">
        <ele>160.79</ele>
        <time>2016-01-17T08:02:52Z</time>
      </trkpt>
      <trkpt lat="48.78892" lon="2.2507">
        <ele>160.52</ele>
        <time>2016-01-17T08:03:06Z</time>
      </trkpt>
      <trkpt lat="48.78893" lon="2.25073">
        <ele>160.58</ele>
        <time>2016-01-17T08:03:08Z</time>
      </trkpt>
      <trkpt lat="48.78903" lon="2.251">
        <ele>160.54</ele>
        <time>2016-01-17T08:03:25Z</time>
      </trkpt>
      <trkpt lat="48.78916" lon="2.25125">
        <ele>160.32</ele>
        <time>2016-01-17T08:03:43Z</time>
      </trkpt>
      <trkpt lat="48.78923" lon="2.25149">
        <ele>160.18</ele>
        <time>2016-01-17T08:03:56Z</time>
      </trkpt>
      <trkpt lat="48.78926" lon="2.25159">
        <ele>159.97</ele>
        <time>2016-01-17T08:04:02Z</time>
      </trkpt>
      <trkpt lat="48.78935" lon="2.25187">
        <ele>159.58</ele>
        <time>2016-01-17T08:04:19Z</time>
      </trkpt>
      <trkpt lat="48.78936" lon="2.25193">
        <ele>159.64</ele>
        <time>2016-01-17T08:04:23Z</time>
      </trkpt>
      <trkpt lat="48.78949" lon="2.25213">
        <ele>159.42</ele>
        <time>2016-01-17T08:04:40Z</time>
      </trkpt>
      <trkpt lat="48.78961" lon="2.25232">
        <ele>159.28</ele>
        <time>2016-01-17T08:04:57Z</time>
      </trkpt>
      <trkpt lat="48.78968" lon="2.25242">
        <ele>158.96</ele>
        <time>2016-01-17T08:05:26Z</time>
      </trkpt>
      <trkpt lat="48.78965" lon="2.25244">
        <ele>158.92</ele>
        <time>2016-01-17T08:05:30Z</time>
      </trkpt>
      <trkpt lat="48.78944" lon="2.2525">
        <ele>159.14</ele>
        <time>2016-01-17T08:05:49Z</time>
      </trkpt>
      <trkpt lat="48.78928" lon="2.25251">
        <ele>158.97</ele>
        <time>2016-01-17T08:06:02Z</time>
      </trkpt>
      <trkpt lat="48.78912" lon="2.25256">
        <ele>158.62</ele>
        <time>2016-01-17T08:06:18Z</time>
      </trkpt>
      <trkpt lat="48.78897" lon="2.25261">
        <ele>158.66</ele>
        <time>2016-01-17T08:06:32Z</time>
      </trkpt>
      <trkpt lat="48.78879" lon="2.25263">
        <ele>158.42</ele>
        <time>2016-01-17T08:06:46Z</time>
      </trkpt>
      <trkpt lat="48.78867" lon="2.25263">
        <ele>157.76</ele>
        <time>2016-01-17T08:06:56Z</time>
      </trkpt>
      <trkpt lat="48.78844" lon="2.25258">
        <ele>157.74</ele>
        <time>2016-01-17T08:07:15Z</time>
      </trkpt>
      <trkpt lat="48.78826" lon="2.25255">
        <ele>157.4</ele>
        <time>2016-01-17T08:07:31Z</time>
      </trkpt>
      <trkpt lat="48.78823" lon="2.25253">
        <ele>157.35</ele>
        <time>2016-01-17T08:07:34Z</time>
      </trkpt>
      <trkpt lat="48.78807" lon="2.25249">
        <ele>157.47</ele>
        <time>2016-01-17T08:07:49Z</time>
      </trkpt>
      <trkpt lat="48.78805" lon="2.25249">
        <ele>157.45</ele>
        <time>2016-01-17T08:07:51Z</time>
      </trkpt>
      <trkpt lat="48.78779" lon="2.25245">
        <ele>157.73</ele>
        <time>2016-01-17T08:08:15Z</time>
      </trkpt>
      <trkpt lat="48.7876" lon="2.25238">
        <ele>157.87</ele>
        <time>2016-01-17T08:08:32Z</time>
      </trkpt>
      <trkpt lat="48.7874" lon="2.25232">
        <ele>157.65</ele>
        <time>2016-01-17T08:08:48Z</time>
      </trkpt>
      <trkpt lat="48.78723" lon="2.25224">
        <ele>158.39</ele>
        <time>2016-01-17T08:09:04Z</time>
      </trkpt>
      <trkpt lat="48.78712" lon="2.25221">
        <ele>158.2</ele>
        <time>2016-01-17T08:09:23Z</time>
      </trkpt>
      <trkpt lat="48.78696" lon="2.25218">
        <ele>158.24</ele>
        <time>2016-01-17T08:09:44Z</time>
      </trkpt>
      <trkpt lat="48.78689" lon="2.25217">
        <ele>158.4</ele>
        <time>2016-01-17T08:09:50Z</time>
      </trkpt>
      <trkpt lat="48.78688" lon="2.25214">
        <ele>158.42</ele>
        <time>2016-01-17T08:09:52Z</time>
      </trkpt>
      <trkpt lat="48.78687" lon="2.25213">
        <ele>158.4</ele>
        <time>2016-01-17T08:09:54Z</time>
      </trkpt>
      <trkpt lat="48.78668" lon="2.25204">
        <ele>158.11</ele>
        <time>2016-01-17T08:10:11Z</time>
      </trkpt>
      <trkpt lat="48.7865" lon="2.252">
        <ele>158.22</ele>
        <time>2016-01-17T08:10:25Z</time>
      </trkpt>
      <trkpt lat="48.78647" lon="2.25198">
        <ele>158.19</ele>
        <time>2016-01-17T08:10:27Z</time>
      </trkpt>
      <trkpt lat="48.78642" lon="2.25194">
        <ele>158.1</ele>
        <time>2016-01-17T08:10:31Z</time>
      </trkpt>
      <trkpt lat="48.78623" lon="2.25184">
        <ele>157.94</ele>
        <time>2016-01-17T08:10:48Z</time>
      </trkpt>
      <trkpt lat="48.78614" lon="2.25177">
        <ele>157.82</ele>
        <time>2016-01-17T08:10:55Z</time>
      </trkpt>
      <trkpt lat="48.786" lon="2.25165">
        <ele>157.77</ele>
        <time>2016-01-17T08:11:10Z</time>
      </trkpt>
      <trkpt lat="48.78583" lon="2.25155">
        <ele>157.26</ele>
        <time>2016-01-17T08:11:27Z</time>
      </trkpt>
      <trkpt lat="48.78567" lon="2.25149">
        <ele>157.2</ele>
        <time>2016-01-17T08:11:46Z</time>
      </trkpt>
      <trkpt lat="48.78567" lon="2.25143">
        <ele>157.14</ele>
        <time>2016-01-17T08:12:10Z</time>
      </trkpt>
      <trkpt lat="48.78568" lon="2.2514">
        <ele>156.91</ele>
        <time>2016-01-17T08:12:44Z</time>
      </trkpt>
      <trkpt lat="48.78568" lon="2.25141">
        <ele>156.8</ele>
        <time>2016-01-17T08:13:11Z</time>
      </trkpt>
      <trkpt lat="48.78554" lon="2.25155">
        <ele>157.07</ele>
        <time>2016-01-17T08:13:31Z</time>
      </trkpt>
      <trkpt lat="48.78545" lon="2.25162">
        <ele>156.83</ele>
        <time>2016-01-17T08:13:50Z</time>
      </trkpt>
      <trkpt lat="48.78526" lon="2.25162">
        <ele>156.65</ele>
        <time>2016-01-17T08:14:13Z</time>
      </trkpt>
      <trkpt lat="48.78517" lon="2.25166">
        <ele>156.55</ele>
        <time>2016-01-17T08:14:33Z</time>
      </trkpt>
      <trkpt lat="48.78501" lon="2.25173">
        <ele>156.03</ele>
        <time>2016-01-17T08:14:55Z</time>
      </trkpt>
      <trkpt lat="48.78489" lon="2.25181">
        <ele>155.69</ele>
        <time>2016-01-17T08:15:17Z</time>
      </trkpt>
      <trkpt lat="48.78487" lon="2.25182">
        <ele>155.66</ele>
        <time>2016-01-17T08:15:19Z</time>
      </trkpt>
      <trkpt lat="48.78462" lon="2.25208">
        <ele>155.17</ele>
        <time>2016-01-17T08:15:44Z</time>
      </trkpt>
      <trkpt lat="48.78451" lon="2.25219">
        <ele>154.96</ele>
        <time>2016-01-17T08:15:56Z</time>
      </trkpt>
      <trkpt lat="48.78441" lon="2.25227">
        <ele>154.67</ele>
        <time>2016-01-17T08:16:06Z</time>
      </trkpt>
      <trkpt lat="48.78432" lon="2.25231">
        <ele>154.83</ele>
        <time>2016-01-17T08:16:13Z</time>
      </trkpt>
      <trkpt lat="48.78421" lon="2.25246">
        <ele>154.88</ele>
        <time>2016-01-17T08:16:29Z</time>
      </trkpt>
      <trkpt lat="48.78417" lon="2.25266">
        <ele>154.37</ele>
        <time>2016-01-17T08:16:46Z</time>
      </trkpt>
      <trkpt lat="48.78409" lon="2.25288">
        <ele>154.72</ele>
        <time>2016-01-17T08:17:06Z</time>
      </trkpt>
      <trkpt lat="48.78411" lon="2.25318">
        <ele>155.01</ele>
        <time>2016-01-17T08:17:24Z</time>
      </trkpt>
      <trkpt lat="48.78414" lon="2.25319">
        <ele>155.22</ele>
        <time>2016-01-17T08:17:51Z</time>
      </trkpt>
      <trkpt lat="48.78416" lon="2.2532">
        <ele>155.23</ele>
        <time>2016-01-17T08:18:19Z</time>
      </trkpt>
      <trkpt lat="48.78412" lon="2.25327">
        <ele>154.97</ele>
        <time>2016-01-17T08:18:35Z</time>
      </trkpt>
      <trkpt lat="48.78411" lon="2.25332">
        <ele>154.91</ele>
        <time>2016-01-17T08:18:38Z</time>
      </trkpt>
      <trkpt lat="48.78418" lon="2.25359">
        <ele>154.56</ele>
        <time>2016-01-17T08:19:01Z</time>
      </trkpt>
      <trkpt lat="48.78446" lon="2.25371">
        <ele>155.13</ele>
        <time>2016-01-17T08:19:28Z</time>
      </trkpt>
      <trkpt lat="48.78458" lon="2.25374">
        <ele>155.37</ele>
        <time>2016-01-17T08:19:38Z</time>
      </trkpt>
      <trkpt lat="48.78475" lon="2.25386">
        <ele>155.56</ele>
        <time>2016-01-17T08:19:54Z</time>
      </trkpt>
      <trkpt lat="48.78484" lon="2.25415">
        <ele>155.57</ele>
        <time>2016-01-17T08:20:13Z</time>
      </trkpt>
      <trkpt lat="48.78489" lon="2.25461">
        <ele>155.12</ele>
        <time>2016-01-17T08:20:40Z</time>
      </trkpt>
      <trkpt lat="48.78501" lon="2.2549">
        <ele>154.9</ele>
        <time>2016-01-17T08:20:56Z</time>
      </trkpt>
      <trkpt lat="48.78519" lon="2.2553">
        <ele>154.52</ele>
        <time>2016-01-17T08:21:20Z</time>
      </trkpt>
      <trkpt lat="48.78526" lon="2.25544">
        <ele>154.18</ele>
        <time>2016-01-17T08:21:27Z</time>
      </trkpt>
      <trkpt lat="48.78546" lon="2.25576">
        <ele>153.85</ele>
        <time>2016-01-17T08:21:47Z</time>
      </trkpt>
      <trkpt lat="48.78549" lon="2.25598">
        <ele>153.73</ele>
        <time>2016-01-17T08:22:00Z</time>
      </trkpt>
      <trkpt lat="48.78553" lon="2.25619">
        <ele>153.39</ele>
        <time>2016-01-17T08:22:14Z</time>
      </trkpt>
      <trkpt lat="48.78556" lon="2.25644">
        <ele>153.32</ele>
        <time>2016-01-17T08:22:29Z</time>
      </trkpt>
      <trkpt lat="48.78558" lon="2.25677">
        <ele>153.22</ele>
        <time>2016-01-17T08:22:52Z</time>
      </trkpt>
      <trkpt lat="48.78538" lon="2.25686">
        <ele>152.35</ele>
        <time>2016-01-17T08:23:09Z</time>
      </trkpt>
      <trkpt lat="48.78534" lon="2.25688">
        <ele>152.18</ele>
        <time>2016-01-17T08:23:12Z</time>
      </trkpt>
      <trkpt lat="48.78515" lon="2.25695">
        <ele>151.18</ele>
        <time>2016-01-17T08:23:26Z</time>
      </trkpt>
      <trkpt lat="48.78505" lon="2.25703">
        <ele>150.48</ele>
        <time>2016-01-17T08:23:36Z</time>
      </trkpt>
      <trkpt lat="48.78495" lon="2.25721">
        <ele>148.74</ele>
        <time>2016-01-17T08:23:50Z</time>
      </trkpt>
      <trkpt lat="48.78491" lon="2.25726">
        <ele>148.4</ele>
        <time>2016-01-17T08:23:53Z</time>
      </trkpt>
      <trkpt lat="48.78478" lon="2.25734">
        <ele>146.33</ele>
        <time>2016-01-17T08:24:10Z</time>
      </trkpt>
      <trkpt lat="48.78474" lon="2.25746">
        <ele>146.08</ele>
        <time>2016-01-17T08:24:32Z</time>
      </trkpt>
      <trkpt lat="48.78474" lon="2.25747">
        <ele>146.35</ele>
        <time>2016-01-17T08:24:56Z</time>
      </trkpt>
      <trkpt lat="48.78472" lon="2.25745">
        <ele>146.31</ele>
        <time>2016-01-17T08:25:23Z</time>
      </trkpt>
      <trkpt lat="48.78473" lon="2.2575">
        <ele>146.49</ele>
        <time>2016-01-17T08:25:54Z</time>
      </trkpt>
      <trkpt lat="48.78471" lon="2.25752">
        <ele>146.49</ele>
        <time>2016-01-17T08:26:27Z</time>
      </trkpt>
      <trkpt lat="48.78473" lon="2.25752">
        <ele>146.41</ele>
        <time>2016-01-17T08:26:58Z</time>
      </trkpt>
      <trkpt lat="48.78477" lon="2.25756">
        <ele>146.4</ele>
        <time>2016-01-17T08:27:28Z</time>
      </trkpt>
      <trkpt lat="48.78478" lon="2.25759">
        <ele>146.34</ele>
        <time>2016-01-17T08:27:58Z</time>
      </trkpt>
      <trkpt lat="48.78478" lon="2.25762">
        <ele>146.29</ele>
        <time>2016-01-17T08:28:29Z</time>
      </trkpt>
      <trkpt lat="48.78482" lon="2.2576">
        <ele>146.32</ele>
        <time>2016-01-17T08:28:59Z</time>
      </trkpt>
      <trkpt lat="48.78481" lon="2.2576">
        <ele>146.31</ele>
        <time>2016-01-17T08:29:00Z</time>
      </trkpt>
      <trkpt lat="48.78488" lon="2.25759">
        <ele>146.15</ele>
        <time>2016-01-17T08:29:28Z</time>
      </trkpt>
      <trkpt lat="48.785" lon="2.25771">
        <ele>144.42</ele>
        <time>2016-01-17T08:29:48Z</time>
      </trkpt>
      <trkpt lat="48.78502" lon="2.25776">
        <ele>144.13</ele>
        <time>2016-01-17T08:29:52Z</time>
      </trkpt>
      <trkpt lat="48.78502" lon="2.25778">
        <ele>143.84</ele>
        <time>2016-01-17T08:29:54Z</time>
      </trkpt>
      <trkpt lat="48.78503" lon="2.258">
        <ele>142.89</ele>
        <time>2016-01-17T08:30:07Z</time>
      </trkpt>
      <trkpt lat="48.78506" lon="2.25822">
        <ele>141.54</ele>
        <time>2016-01-17T08:30:23Z</time>
      </trkpt>
      <trkpt lat="48.78506" lon="2.25853">
        <ele>139.75</ele>
        <time>2016-01-17T08:30:45Z</time>
      </trkpt>
      <trkpt lat="48.78504" lon="2.2588">
        <ele>139.12</ele>
        <time>2016-01-17T08:31:06Z</time>
      </trkpt>
      <trkpt lat="48.78503" lon="2.25901">
        <ele>140.24</ele>
        <time>2016-01-17T08:31:21Z</time>
      </trkpt>
      <trkpt lat="48.78504" lon="2.25915">
        <ele>141.08</ele>
        <time>2016-01-17T08:31:32Z</time>
      </trkpt>
      <trkpt lat="48.78502" lon="2.25929">
        <ele>142.01</ele>
        <time>2016-01-17T08:31:42Z</time>
      </trkpt>
      <trkpt lat="48.78503" lon="2.25934">
        <ele>142.26</ele>
        <time>2016-01-17T08:31:45Z</time>
      </trkpt>
      <trkpt lat="48.78503" lon="2.25951">
        <ele>143.38</ele>
        <time>2016-01-17T08:31:57Z</time>
      </trkpt>
      <trkpt lat="48.78503" lon="2.25966">
        <ele>143.99</ele>
        <time>2016-01-17T08:32:06Z</time>
      </trkpt>
      <trkpt lat="48.78502" lon="2.25989">
        <ele>145.36</ele>
        <time>2016-01-17T08:32:22Z</time>
      </trkpt>
      <trkpt lat="48.78501" lon="2.2601">
        <ele>146.22</ele>
        <time>2016-01-17T08:32:36Z</time>
      </trkpt>
      <trkpt lat="48.78502" lon="2.2603">
        <ele>146.92</ele>
        <time>2016-01-17T08:32:49Z</time>
      </trkpt>
      <trkpt lat="48.78502" lon="2.26034">
        <ele>147.01</ele>
        <time>2016-01-17T08:32:52Z</time>
      </trkpt>
      <trkpt lat="48.78499" lon="2.26064">
        <ele>147.18</ele>
        <time>2016-01-17T08:33:10Z</time>
      </trkpt>
      <trkpt lat="48.78498" lon="2.26089">
        <ele>146.51</ele>
        <time>2016-01-17T08:33:26Z</time>
      </trkpt>
      <trkpt lat="48.78491" lon="2.26123">
        <ele>146.12</ele>
        <time>2016-01-17T08:33:47Z</time>
      </trkpt>
      <trkpt lat="48.7849" lon="2.26144">
        <ele>146.08</ele>
        <time>2016-01-17T08:33:59Z</time>
      </trkpt>
      <trkpt lat="48.78487" lon="2.26167">
        <ele>146.28</ele>
        <time>2016-01-17T08:34:11Z</time>
      </trkpt>
      <trkpt lat="48.78483" lon="2.26208">
        <ele>145.64</ele>
        <time>2016-01-17T08:34:35Z</time>
      </trkpt>
      <trkpt lat="48.7848" lon="2.26264">
        <ele>144.62</ele>
        <time>2016-01-17T08:34:58Z</time>
      </trkpt>
      <trkpt lat="48.78484" lon="2.26297">
        <ele>143.8</ele>
        <time>2016-01-17T08:35:22Z</time>
      </trkpt>
      <trkpt lat="48.78493" lon="2.26338">
        <ele>142.48</ele>
        <time>2016-01-17T08:35:48Z</time>
      </trkpt>
      <trkpt lat="48.78496" lon="2.26348">
        <ele>142.05</ele>
        <time>2016-01-17T08:35:55Z</time>
      </trkpt>
      <trkpt lat="48.78506" lon="2.2639">
        <ele>141.24</ele>
        <time>2016-01-17T08:36:18Z</time>
      </trkpt>
      <trkpt lat="48.78519" lon="2.26426">
        <ele>140.34</ele>
        <time>2016-01-17T08:36:41Z</time>
      </trkpt>
      <trkpt lat="48.78539" lon="2.2645">
        <ele>139.53</ele>
        <time>2016-01-17T08:37:05Z</time>
      </trkpt>
      <trkpt lat="48.78544" lon="2.26463">
        <ele>138.52</ele>
        <time>2016-01-17T08:37:22Z</time>
      </trkpt>
      <trkpt lat="48.78527" lon="2.26467">
        <ele>135.33</ele>
        <time>2016-01-17T08:37:42Z</time>
      </trkpt>
      <trkpt lat="48.78509" lon="2.26465">
        <ele>132.29</ele>
        <time>2016-01-17T08:38:00Z</time>
      </trkpt>
      <trkpt lat="48.78497" lon="2.26468">
        <ele>129.08</ele>
        <time>2016-01-17T08:38:20Z</time>
      </trkpt>
      <trkpt lat="48.78489" lon="2.26473">
        <ele>126.04</ele>
        <time>2016-01-17T08:38:33Z</time>
      </trkpt>
      <trkpt lat="48.78494" lon="2.26479">
        <ele>123.19</ele>
        <time>2016-01-17T08:38:50Z</time>
      </trkpt>
      <trkpt lat="48.78496" lon="2.2648">
        <ele>122.67</ele>
        <time>2016-01-17T08:39:11Z</time>
      </trkpt>
      <trkpt lat="48.78494" lon="2.26485">
        <ele>122.52</ele>
        <time>2016-01-17T08:39:26Z</time>
      </trkpt>
      <trkpt lat="48.78495" lon="2.26497">
        <ele>121.99</ele>
        <time>2016-01-17T08:39:56Z</time>
      </trkpt>
      <trkpt lat="48.78492" lon="2.265">
        <ele>122.07</ele>
        <time>2016-01-17T08:40:39Z</time>
      </trkpt>
      <trkpt lat="48.78491" lon="2.26504">
        <ele>121.95</ele>
        <time>2016-01-17T08:41:07Z</time>
      </trkpt>
      <trkpt lat="48.78492" lon="2.26503">
        <ele>121.95</ele>
        <time>2016-01-17T08:41:33Z</time>
      </trkpt>
      <trkpt lat="48.78511" lon="2.26512">
        <ele>121.76</ele>
        <time>2016-01-17T08:41:54Z</time>
      </trkpt>
      <trkpt lat="48.78524" lon="2.26521">
        <ele>122.87</ele>
        <time>2016-01-17T08:42:11Z</time>
      </trkpt>
      <trkpt lat="48.78526" lon="2.26523">
        <ele>122.81</ele>
        <time>2016-01-17T08:42:13Z</time>
      </trkpt>
      <trkpt lat="48.78546" lon="2.26546">
        <ele>122.81</ele>
        <time>2016-01-17T08:42:38Z</time>
      </trkpt>
      <trkpt lat="48.78547" lon="2.2655">
        <ele>122.76</ele>
        <time>2016-01-17T08:42:41Z</time>
      </trkpt>
      <trkpt lat="48.7855" lon="2.26559">
        <ele>122.76</ele>
        <time>2016-01-17T08:42:48Z</time>
      </trkpt>
      <trkpt lat="48.78561" lon="2.26594">
        <ele>122.07</ele>
        <time>2016-01-17T08:43:11Z</time>
      </trkpt>
      <trkpt lat="48.78568" lon="2.2662">
        <ele>121.83</ele>
        <time>2016-01-17T08:43:28Z</time>
      </trkpt>
      <trkpt lat="48.78569" lon="2.2664">
        <ele>121.17</ele>
        <time>2016-01-17T08:43:44Z</time>
      </trkpt>
      <trkpt lat="48.78573" lon="2.26658">
        <ele>120.8</ele>
        <time>2016-01-17T08:44:00Z</time>
      </trkpt>
      <trkpt lat="48.78576" lon="2.26682">
        <ele>120.08</ele>
        <time>2016-01-17T08:44:19Z</time>
      </trkpt>
      <trkpt lat="48.78575" lon="2.26723">
        <ele>118.63</ele>
        <time>2016-01-17T08:44:43Z</time>
      </trkpt>
      <trkpt lat="48.78576" lon="2.26725">
        <ele>118.53</ele>
        <time>2016-01-17T08:44:44Z</time>
      </trkpt>
      <trkpt lat="48.78578" lon="2.26745">
        <ele>117.9</ele>
        <time>2016-01-17T08:44:56Z</time>
      </trkpt>
      <trkpt lat="48.7858" lon="2.26755">
        <ele>116.92</ele>
        <time>2016-01-17T08:45:03Z</time>
      </trkpt>
      <trkpt lat="48.78583" lon="2.26782">
        <ele>115.1</ele>
        <time>2016-01-17T08:45:19Z</time>
      </trkpt>
      <trkpt lat="48.78584" lon="2.26791">
        <ele>114.82</ele>
        <time>2016-01-17T08:45:24Z</time>
      </trkpt>
      <trkpt lat="48.78589" lon="2.2682">
        <ele>113.43</ele>
        <time>2016-01-17T08:45:41Z</time>
      </trkpt>
      <trkpt lat="48.78591" lon="2.26833">
        <ele>112.89</ele>
        <time>2016-01-17T08:45:48Z</time>
      </trkpt>
      <trkpt lat="48.78592" lon="2.26847">
        <ele>112.06</ele>
        <time>2016-01-17T08:45:57Z</time>
      </trkpt>
      <trkpt lat="48.78595" lon="2.26871">
        <ele>110.68</ele>
        <time>2016-01-17T08:46:12Z</time>
      </trkpt>
      <trkpt lat="48.78595" lon="2.26898">
        <ele>109.15</ele>
        <time>2016-01-17T08:46:28Z</time>
      </trkpt>
      <trkpt lat="48.78599" lon="2.26921">
        <ele>107.9</ele>
        <time>2016-01-17T08:46:43Z</time>
      </trkpt>
      <trkpt lat="48.78598" lon="2.26938">
        <ele>106.66</ele>
        <time>2016-01-17T08:46:57Z</time>
      </trkpt>
      <trkpt lat="48.786" lon="2.2695">
        <ele>105.64</ele>
        <time>2016-01-17T08:47:18Z</time>
      </trkpt>
      <trkpt lat="48.78588" lon="2.26958">
        <ele>103.17</ele>
        <time>2016-01-17T08:47:35Z</time>
      </trkpt>
      <trkpt lat="48.78581" lon="2.26961">
        <ele>100.78</ele>
        <time>2016-01-17T08:47:50Z</time>
      </trkpt>
      <trkpt lat="48.78577" lon="2.26965">
        <ele>98.92</ele>
        <time>2016-01-17T08:47:59Z</time>
      </trkpt>
      <trkpt lat="48.78565" lon="2.26967">
        <ele>96.15</ele>
        <time>2016-01-17T08:48:16Z</time>
      </trkpt>
      <trkpt lat="48.78555" lon="2.26968">
        <ele>93.84</ele>
        <time>2016-01-17T08:48:28Z</time>
      </trkpt>
      <trkpt lat="48.78535" lon="2.26974">
        <ele>91.35</ele>
        <time>2016-01-17T08:48:45Z</time>
      </trkpt>
      <trkpt lat="48.7851" lon="2.26971">
        <ele>89.52</ele>
        <time>2016-01-17T08:49:03Z</time>
      </trkpt>
      <trkpt lat="48.78496" lon="2.2697">
        <ele>88.86</ele>
        <time>2016-01-17T08:49:15Z</time>
      </trkpt>
      <trkpt lat="48.78493" lon="2.26968">
        <ele>88.74</ele>
        <time>2016-01-17T08:49:36Z</time>
      </trkpt>
      <trkpt lat="48.78497" lon="2.26965">
        <ele>88.58</ele>
        <time>2016-01-17T08:50:10Z</time>
      </trkpt>
      <trkpt lat="48.78487" lon="2.2696">
        <ele>88.66</ele>
        <time>2016-01-17T08:50:32Z</time>
      </trkpt>
      <trkpt lat="48.78482" lon="2.26976">
        <ele>89.11</ele>
        <time>2016-01-17T08:50:44Z</time>
      </trkpt>
      <trkpt lat="48.78483" lon="2.26986">
        <ele>88.9</ele>
        <time>2016-01-17T08:50:55Z</time>
      </trkpt>
      <trkpt lat="48.78482" lon="2.2699">
        <ele>88.5</ele>
        <time>2016-01-17T08:51:15Z</time>
      </trkpt>
      <trkpt lat="48.78482" lon="2.26987">
        <ele>88.56</ele>
        <time>2016-01-17T08:51:43Z</time>
      </trkpt>
      <trkpt lat="48.7848" lon="2.26996">
        <ele>88.94</ele>
        <time>2016-01-17T08:52:19Z</time>
      </trkpt>
      <trkpt lat="48.78463" lon="2.27007">
        <ele>88.83</ele>
        <time>2016-01-17T08:52:39Z</time>
      </trkpt>
      <trkpt lat="48.78458" lon="2.27023">
        <ele>88.68</ele>
        <time>2016-01-17T08:52:50Z</time>
      </trkpt>
      <trkpt lat="48.78458" lon="2.27027">
        <ele>88.7</ele>
        <time>2016-01-17T08:52:52Z</time>
      </trkpt>
      <trkpt lat="48.78455" lon="2.27047">
        <ele>88.5</ele>
        <time>2016-01-17T08:53:07Z</time>
      </trkpt>
      <trkpt lat="48.78448" lon="2.27048">
        <ele>88.34</ele>
        <time>2016-01-17T08:53:16Z</time>
      </trkpt>
      <trkpt lat="48.78435" lon="2.27049">
        <ele>88.51</ele>
        <time>2016-01-17T08:53:28Z</time>
      </trkpt>
      <trkpt lat="48.78421" lon="2.2705">
        <ele>89.22</ele>
        <time>2016-01-17T08:53:50Z</time>
      </trkpt>
      <trkpt lat="48.78414" lon="2.27063">
        <ele>89.46</ele>
        <time>2016-01-17T08:54:04Z</time>
      </trkpt>
      <trkpt lat="48.78412" lon="2.27076">
        <ele>89.36</ele>
        <time>2016-01-17T08:54:13Z</time>
      </trkpt>
      <trkpt lat="48.78409" lon="2.27092">
        <ele>89.13</ele>
        <time>2016-01-17T08:54:24Z</time>
      </trkpt>
      <trkpt lat="48.78408" lon="2.27107">
        <ele>88.76</ele>
        <time>2016-01-17T08:54:34Z</time>
      </trkpt>
      <trkpt lat="48.78407" lon="2.27127">
        <ele>88.56</ele>
        <time>2016-01-17T08:54:46Z</time>
      </trkpt>
      <trkpt lat="48.78409" lon="2.27145">
        <ele>88.51</ele>
        <time>2016-01-17T08:54:55Z</time>
      </trkpt>
      <trkpt lat="48.78412" lon="2.27153">
        <ele>88.36</ele>
        <time>2016-01-17T08:55:04Z</time>
      </trkpt>
      <trkpt lat="48.78422" lon="2.27168">
        <ele>87.68</ele>
        <time>2016-01-17T08:55:32Z</time>
      </trkpt>
      <trkpt lat="48.78439" lon="2.27177">
        <ele>87.81</ele>
        <time>2016-01-17T08:55:58Z</time>
      </trkpt>
      <trkpt lat="48.78453" lon="2.27183">
        <ele>87.89</ele>
        <time>2016-01-17T08:56:09Z</time>
      </trkpt>
      <trkpt lat="48.78462" lon="2.27187">
        <ele>87.5</ele>
        <time>2016-01-17T08:56:15Z</time>
      </trkpt>
      <trkpt lat="48.78471" lon="2.27195">
        <ele>87.28</ele>
        <time>2016-01-17T08:56:25Z</time>
      </trkpt>
      <trkpt lat="48.78482" lon="2.27202">
        <ele>87.29</ele>
        <time>2016-01-17T08:56:38Z</time>
      </trkpt>
      <trkpt lat="48.78495" lon="2.27213">
        <ele>87.32</ele>
        <time>2016-01-17T08:56:53Z</time>
      </trkpt>
      <trkpt lat="48.78495" lon="2.27213">
        <ele>87.37</ele>
        <time>2016-01-17T08:56:54Z</time>
      </trkpt>
      <trkpt lat="48.78503" lon="2.27219">
        <ele>87.4</ele>
        <time>2016-01-17T08:57:04Z</time>
      </trkpt>
      <trkpt lat="48.78536" lon="2.27234">
        <ele>87.36</ele>
        <time>2016-01-17T08:57:30Z</time>
      </trkpt>
      <trkpt lat="48.78548" lon="2.27238">
        <ele>87.7</ele>
        <time>2016-01-17T08:57:43Z</time>
      </trkpt>
      <trkpt lat="48.78557" lon="2.27235">
        <ele>87.64</ele>
        <time>2016-01-17T08:57:52Z</time>
      </trkpt>
      <trkpt lat="48.78565" lon="2.27232">
        <ele>87.96</ele>
        <time>2016-01-17T08:58:04Z</time>
      </trkpt>
      <trkpt lat="48.78569" lon="2.27225">
        <ele>88.29</ele>
        <time>2016-01-17T08:58:27Z</time>
      </trkpt>
      <trkpt lat="48.78567" lon="2.27224">
        <ele>88.37</ele>
        <time>2016-01-17T08:58:30Z</time>
      </trkpt>
      <trkpt lat="48.78555" lon="2.2721">
        <ele>80.1</ele>
        <time>2016-01-17T08:58:50Z</time>
      </trkpt>
      <trkpt lat="48.7858" lon="2.27225">
        <ele>86.38</ele>
        <time>2016-01-17T09:06:22Z</time>
      </trkpt>
      <trkpt lat="48.78586" lon="2.2721">
        <ele>86.6</ele>
        <time>2016-01-17T09:06:41Z</time>
      </trkpt>
      <trkpt lat="48.78588" lon="2.27205">
        <ele>86.71</ele>
        <time>2016-01-17T09:06:44Z</time>
      </trkpt>
      <trkpt lat="48.78593" lon="2.27181">
        <ele>87.39</ele>
        <time>2016-01-17T09:06:59Z</time>
      </trkpt>
      <trkpt lat="48.78601" lon="2.27168">
        <ele>87.91</ele>
        <time>2016-01-17T09:07:11Z</time>
      </trkpt>
      <trkpt lat="48.78606" lon="2.27171">
        <ele>88.66</ele>
        <time>2016-01-17T09:07:27Z</time>
      </trkpt>
      <trkpt lat="48.78602" lon="2.27183">
        <ele>88.26</ele>
        <time>2016-01-17T09:07:39Z</time>
      </trkpt>
      <trkpt lat="48.786" lon="2.27188">
        <ele>88.19</ele>
        <time>2016-01-17T09:07:42Z</time>
      </trkpt>
      <trkpt lat="48.78596" lon="2.27208">
        <ele>87.72</ele>
        <time>2016-01-17T09:07:57Z</time>
      </trkpt>
      <trkpt lat="48.78583" lon="2.27239">
        <ele>87.02</ele>
        <time>2016-01-17T09:08:15Z</time>
      </trkpt>
      <trkpt lat="48.78582" lon="2.27247">
        <ele>86.89</ele>
        <time>2016-01-17T09:08:20Z</time>
      </trkpt>
      <trkpt lat="48.78591" lon="2.27265">
        <ele>87.59</ele>
        <time>2016-01-17T09:08:40Z</time>
      </trkpt>
      <trkpt lat="48.78604" lon="2.27277">
        <ele>89.76</ele>
        <time>2016-01-17T09:08:59Z</time>
      </trkpt>
      <trkpt lat="48.78621" lon="2.27285">
        <ele>92.86</ele>
        <time>2016-01-17T09:09:19Z</time>
      </trkpt>
      <trkpt lat="48.78635" lon="2.27284">
        <ele>95.93</ele>
        <time>2016-01-17T09:09:39Z</time>
      </trkpt>
      <trkpt lat="48.78655" lon="2.27279">
        <ele>98.72</ele>
        <time>2016-01-17T09:10:01Z</time>
      </trkpt>
      <trkpt lat="48.78669" lon="2.27273">
        <ele>101.42</ele>
        <time>2016-01-17T09:10:23Z</time>
      </trkpt>
      <trkpt lat="48.78683" lon="2.27266">
        <ele>104.47</ele>
        <time>2016-01-17T09:10:47Z</time>
      </trkpt>
      <trkpt lat="48.78694" lon="2.27261">
        <ele>105.95</ele>
        <time>2016-01-17T09:11:06Z</time>
      </trkpt>
      <trkpt lat="48.78707" lon="2.27259">
        <ele>107.97</ele>
        <time>2016-01-17T09:11:25Z</time>
      </trkpt>
      <trkpt lat="48.78714" lon="2.27258">
        <ele>109.04</ele>
        <time>2016-01-17T09:11:35Z</time>
      </trkpt>
      <trkpt lat="48.78717" lon="2.27258">
        <ele>109.62</ele>
        <time>2016-01-17T09:11:39Z</time>
      </trkpt>
      <trkpt lat="48.78729" lon="2.27253">
        <ele>111.6</ele>
        <time>2016-01-17T09:11:55Z</time>
      </trkpt>
      <trkpt lat="48.78741" lon="2.27248">
        <ele>113.35</ele>
        <time>2016-01-17T09:12:11Z</time>
      </trkpt>
      <trkpt lat="48.78758" lon="2.27246">
        <ele>115.48</ele>
        <time>2016-01-17T09:12:28Z</time>
      </trkpt>
      <trkpt lat="48.78767" lon="2.2724">
        <ele>117.91</ele>
        <time>2016-01-17T09:12:45Z</time>
      </trkpt>
      <trkpt lat="48.78783" lon="2.27236">
        <ele>120.95</ele>
        <time>2016-01-17T09:13:06Z</time>
      </trkpt>
      <trkpt lat="48.78795" lon="2.27226">
        <ele>122.88</ele>
        <time>2016-01-17T09:13:21Z</time>
      </trkpt>
      <trkpt lat="48.7881" lon="2.27222">
        <ele>126.06</ele>
        <time>2016-01-17T09:13:43Z</time>
      </trkpt>
      <trkpt lat="48.78826" lon="2.27222">
        <ele>128.48</ele>
        <time>2016-01-17T09:13:59Z</time>
      </trkpt>
      <trkpt lat="48.78833" lon="2.27217">
        <ele>130.74</ele>
        <time>2016-01-17T09:14:15Z</time>
      </trkpt>
      <trkpt lat="48.78853" lon="2.27218">
        <ele>132.68</ele>
        <time>2016-01-17T09:14:33Z</time>
      </trkpt>
      <trkpt lat="48.78868" lon="2.27212">
        <ele>134.2</ele>
        <time>2016-01-17T09:14:48Z</time>
      </trkpt>
      <trkpt lat="48.78874" lon="2.27207">
        <ele>135.75</ele>
        <time>2016-01-17T09:14:59Z</time>
      </trkpt>
      <trkpt lat="48.78885" lon="2.27205">
        <ele>137.43</ele>
        <time>2016-01-17T09:15:17Z</time>
      </trkpt>
      <trkpt lat="48.78885" lon="2.27205">
        <ele>140.45</ele>
        <time>2016-01-17T09:15:18Z</time>
      </trkpt>
      <trkpt lat="48.78826" lon="2.27663">
        <ele>148.47</ele>
        <time>2016-01-17T09:24:38Z</time>
      </trkpt>
      <trkpt lat="48.78827" lon="2.27661">
        <ele>148.06</ele>
        <time>2016-01-17T09:24:59Z</time>
      </trkpt>
      <trkpt lat="48.78829" lon="2.27661">
        <ele>148.46</ele>
        <time>2016-01-17T09:25:34Z</time>
      </trkpt>
      <trkpt lat="48.78827" lon="2.27659">
        <ele>148.71</ele>
        <time>2016-01-17T09:26:01Z</time>
      </trkpt>
      <trkpt lat="48.78838" lon="2.27679">
        <ele>148.88</ele>
        <time>2016-01-17T09:26:22Z</time>
      </trkpt>
      <trkpt lat="48.78838" lon="2.27681">
        <ele>151.95</ele>
        <time>2016-01-17T09:26:24Z</time>
      </trkpt>
      <trkpt lat="48.7884" lon="2.27687">
        <ele>156.84</ele>
        <time>2016-01-17T09:26:30Z</time>
      </trkpt>
      <trkpt lat="48.78841" lon="2.27688">
        <ele>156.84</ele>
        <time>2016-01-17T09:26:31Z</time>
      </trkpt>
      <trkpt lat="48.78849" lon="2.27709">
        <ele>156.67</ele>
        <time>2016-01-17T09:26:47Z</time>
      </trkpt>
      <trkpt lat="48.7885" lon="2.27712">
        <ele>156.67</ele>
        <time>2016-01-17T09:26:49Z</time>
      </trkpt>
      <trkpt lat="48.78859" lon="2.27735">
        <ele>156.56</ele>
        <time>2016-01-17T09:27:05Z</time>
      </trkpt>
      <trkpt lat="48.78866" lon="2.27754">
        <ele>156.49</ele>
        <time>2016-01-17T09:27:19Z</time>
      </trkpt>
      <trkpt lat="48.78875" lon="2.27775">
        <ele>156.22</ele>
        <time>2016-01-17T09:27:34Z</time>
      </trkpt>
      <trkpt lat="48.78885" lon="2.27798">
        <ele>155.95</ele>
        <time>2016-01-17T09:27:49Z</time>
      </trkpt>
      <trkpt lat="48.78893" lon="2.27821">
        <ele>155.76</ele>
        <time>2016-01-17T09:28:04Z</time>
      </trkpt>
      <trkpt lat="48.78897" lon="2.2783">
        <ele>155.65</ele>
        <time>2016-01-17T09:28:10Z</time>
      </trkpt>
      <trkpt lat="48.78904" lon="2.27854">
        <ele>155.78</ele>
        <time>2016-01-17T09:28:25Z</time>
      </trkpt>
      <trkpt lat="48.78906" lon="2.27858">
        <ele>155.9</ele>
        <time>2016-01-17T09:28:28Z</time>
      </trkpt>
      <trkpt lat="48.78909" lon="2.27863">
        <ele>155.97</ele>
        <time>2016-01-17T09:28:32Z</time>
      </trkpt>
      <trkpt lat="48.78917" lon="2.27878">
        <ele>155.71</ele>
        <time>2016-01-17T09:28:44Z</time>
      </trkpt>
      <trkpt lat="48.78915" lon="2.27895">
        <ele>155.48</ele>
        <time>2016-01-17T09:28:54Z</time>
      </trkpt>
      <trkpt lat="48.78918" lon="2.27924">
        <ele>154.99</ele>
        <time>2016-01-17T09:29:12Z</time>
      </trkpt>
      <trkpt lat="48.78919" lon="2.27927">
        <ele>155.02</ele>
        <time>2016-01-17T09:29:14Z</time>
      </trkpt>
      <trkpt lat="48.78934" lon="2.27943">
        <ele>155.17</ele>
        <time>2016-01-17T09:29:28Z</time>
      </trkpt>
      <trkpt lat="48.78944" lon="2.27958">
        <ele>155.1</ele>
        <time>2016-01-17T09:29:42Z</time>
      </trkpt>
      <trkpt lat="48.78959" lon="2.27967">
        <ele>154.65</ele>
        <time>2016-01-17T09:29:58Z</time>
      </trkpt>
      <trkpt lat="48.78976" lon="2.27976">
        <ele>154.5</ele>
        <time>2016-01-17T09:30:15Z</time>
      </trkpt>
      <trkpt lat="48.78992" lon="2.27985">
        <ele>154.27</ele>
        <time>2016-01-17T09:30:32Z</time>
      </trkpt>
      <trkpt lat="48.79015" lon="2.27992">
        <ele>154.08</ele>
        <time>2016-01-17T09:30:53Z</time>
      </trkpt>
      <trkpt lat="48.79043" lon="2.27988">
        <ele>153.72</ele>
        <time>2016-01-17T09:31:17Z</time>
      </trkpt>
      <trkpt lat="48.79049" lon="2.27981">
        <ele>153.49</ele>
        <time>2016-01-17T09:31:24Z</time>
      </trkpt>
      <trkpt lat="48.79056" lon="2.27961">
        <ele>153.14</ele>
        <time>2016-01-17T09:31:42Z</time>
      </trkpt>
      <trkpt lat="48.79065" lon="2.27944">
        <ele>152.8</ele>
        <time>2016-01-17T09:31:55Z</time>
      </trkpt>
      <trkpt lat="48.7907" lon="2.27925">
        <ele>152.43</ele>
        <time>2016-01-17T09:32:08Z</time>
      </trkpt>
      <trkpt lat="48.79074" lon="2.27906">
        <ele>151.92</ele>
        <time>2016-01-17T09:32:22Z</time>
      </trkpt>
      <trkpt lat="48.79078" lon="2.27893">
        <ele>151.9</ele>
        <time>2016-01-17T09:32:33Z</time>
      </trkpt>
      <trkpt lat="48.79079" lon="2.27892">
        <ele>151.84</ele>
        <time>2016-01-17T09:32:34Z</time>
      </trkpt>
      <trkpt lat="48.79082" lon="2.27876">
        <ele>151.89</ele>
        <time>2016-01-17T09:32:44Z</time>
      </trkpt>
      <trkpt lat="48.79087" lon="2.27851">
        <ele>151.6</ele>
        <time>2016-01-17T09:33:01Z</time>
      </trkpt>
      <trkpt lat="48.79111" lon="2.2783">
        <ele>150.21</ele>
        <time>2016-01-17T09:33:24Z</time>
      </trkpt>
      <trkpt lat="48.79112" lon="2.27829">
        <ele>150.14</ele>
        <time>2016-01-17T09:33:25Z</time>
      </trkpt>
      <trkpt lat="48.79135" lon="2.27825">
        <ele>150.64</ele>
        <time>2016-01-17T09:33:46Z</time>
      </trkpt>
      <trkpt lat="48.79149" lon="2.27851">
        <ele>152.2</ele>
        <time>2016-01-17T09:34:11Z</time>
      </trkpt>
      <trkpt lat="48.79166" lon="2.27864">
        <ele>152.62</ele>
        <time>2016-01-17T09:34:26Z</time>
      </trkpt>
      <trkpt lat="48.79175" lon="2.27869">
        <ele>152.74</ele>
        <time>2016-01-17T09:34:34Z</time>
      </trkpt>
      <trkpt lat="48.79208" lon="2.27868">
        <ele>153.16</ele>
        <time>2016-01-17T09:34:58Z</time>
      </trkpt>
      <trkpt lat="48.79238" lon="2.27856">
        <ele>153.26</ele>
        <time>2016-01-17T09:35:24Z</time>
      </trkpt>
      <trkpt lat="48.79259" lon="2.27824">
        <ele>153.48</ele>
        <time>2016-01-17T09:35:48Z</time>
      </trkpt>
      <trkpt lat="48.79279" lon="2.27798">
        <ele>153.67</ele>
        <time>2016-01-17T09:36:11Z</time>
      </trkpt>
      <trkpt lat="48.79297" lon="2.27787">
        <ele>153.9</ele>
        <time>2016-01-17T09:36:32Z</time>
      </trkpt>
      <trkpt lat="48.79303" lon="2.27784">
        <ele>154.04</ele>
        <time>2016-01-17T09:36:38Z</time>
      </trkpt>
      <trkpt lat="48.7931" lon="2.27791">
        <ele>154.69</ele>
        <time>2016-01-17T09:36:49Z</time>
      </trkpt>
      <trkpt lat="48.79317" lon="2.27813">
        <ele>155.65</ele>
        <time>2016-01-17T09:37:06Z</time>
      </trkpt>
      <trkpt lat="48.79331" lon="2.27825">
        <ele>155.64</ele>
        <time>2016-01-17T09:37:24Z</time>
      </trkpt>
      <trkpt lat="48.79358" lon="2.2782">
        <ele>155.56</ele>
        <time>2016-01-17T09:37:47Z</time>
      </trkpt>
      <trkpt lat="48.79381" lon="2.2782">
        <ele>155.74</ele>
        <time>2016-01-17T09:38:11Z</time>
      </trkpt>
      <trkpt lat="48.79388" lon="2.27819">
        <ele>155.81</ele>
        <time>2016-01-17T09:38:16Z</time>
      </trkpt>
      <trkpt lat="48.79411" lon="2.27802">
        <ele>155.28</ele>
        <time>2016-01-17T09:38:36Z</time>
      </trkpt>
      <trkpt lat="48.79422" lon="2.27799">
        <ele>155.09</ele>
        <time>2016-01-17T09:38:44Z</time>
      </trkpt>
      <trkpt lat="48.79443" lon="2.27797">
        <ele>154.63</ele>
        <time>2016-01-17T09:39:00Z</time>
      </trkpt>
      <trkpt lat="48.79444" lon="2.27797">
        <ele>154.6</ele>
        <time>2016-01-17T09:39:01Z</time>
      </trkpt>
      <trkpt lat="48.79451" lon="2.27798">
        <ele>154.67</ele>
        <time>2016-01-17T09:39:08Z</time>
      </trkpt>
      <trkpt lat="48.79458" lon="2.27798">
        <ele>154.78</ele>
        <time>2016-01-17T09:39:13Z</time>
      </trkpt>
      <trkpt lat="48.79488" lon="2.27793">
        <ele>154.6</ele>
        <time>2016-01-17T09:39:35Z</time>
      </trkpt>
      <trkpt lat="48.79505" lon="2.27786">
        <ele>154.35</ele>
        <time>2016-01-17T09:40:00Z</time>
      </trkpt>
      <trkpt lat="48.79509" lon="2.27781">
        <ele>154.37</ele>
        <time>2016-01-17T09:40:06Z</time>
      </trkpt>
      <trkpt lat="48.79517" lon="2.27777">
        <ele>154.65</ele>
        <time>2016-01-17T09:40:15Z</time>
      </trkpt>
      <trkpt lat="48.7954" lon="2.27762">
        <ele>154.74</ele>
        <time>2016-01-17T09:40:41Z</time>
      </trkpt>
      <trkpt lat="48.79569" lon="2.27749">
        <ele>154.63</ele>
        <time>2016-01-17T09:41:08Z</time>
      </trkpt>
      <trkpt lat="48.79579" lon="2.27736">
        <ele>154.56</ele>
        <time>2016-01-17T09:41:26Z</time>
      </trkpt>
      <trkpt lat="48.7958" lon="2.27726">
        <ele>154.84</ele>
        <time>2016-01-17T09:41:48Z</time>
      </trkpt>
      <trkpt lat="48.79579" lon="2.27722">
        <ele>155.08</ele>
        <time>2016-01-17T09:42:10Z</time>
      </trkpt>
      <trkpt lat="48.79579" lon="2.27723">
        <ele>155.06</ele>
        <time>2016-01-17T09:42:40Z</time>
      </trkpt>
      <trkpt lat="48.79579" lon="2.27722">
        <ele>155.02</ele>
        <time>2016-01-17T09:42:45Z</time>
      </trkpt>
      <trkpt lat="48.79581" lon="2.27722">
        <ele>155.25</ele>
        <time>2016-01-17T09:43:15Z</time>
      </trkpt>
      <trkpt lat="48.79582" lon="2.27716">
        <ele>155.57</ele>
        <time>2016-01-17T09:43:41Z</time>
      </trkpt>
      <trkpt lat="48.79586" lon="2.27703">
        <ele>155.88</ele>
        <time>2016-01-17T09:44:00Z</time>
      </trkpt>
      <trkpt lat="48.79593" lon="2.27695">
        <ele>155.96</ele>
        <time>2016-01-17T09:44:18Z</time>
      </trkpt>
      <trkpt lat="48.79602" lon="2.27693">
        <ele>155.54</ele>
        <time>2016-01-17T09:44:39Z</time>
      </trkpt>
      <trkpt lat="48.79611" lon="2.27703">
        <ele>155.4</ele>
        <time>2016-01-17T09:45:00Z</time>
      </trkpt>
      <trkpt lat="48.79613" lon="2.27712">
        <ele>155.44</ele>
        <time>2016-01-17T09:45:08Z</time>
      </trkpt>
      <trkpt lat="48.7962" lon="2.27728">
        <ele>154.95</ele>
        <time>2016-01-17T09:45:20Z</time>
      </trkpt>
      <trkpt lat="48.79624" lon="2.27741">
        <ele>154.74</ele>
        <time>2016-01-17T09:45:32Z</time>
      </trkpt>
      <trkpt lat="48.79624" lon="2.27744">
        <ele>154.69</ele>
        <time>2016-01-17T09:45:34Z</time>
      </trkpt>
      <trkpt lat="48.79631" lon="2.27761">
        <ele>154.47</ele>
        <time>2016-01-17T09:45:46Z</time>
      </trkpt>
      <trkpt lat="48.79632" lon="2.27781">
        <ele>153.48</ele>
        <time>2016-01-17T09:46:00Z</time>
      </trkpt>
      <trkpt lat="48.79636" lon="2.27794">
        <ele>153.18</ele>
        <time>2016-01-17T09:46:08Z</time>
      </trkpt>
      <trkpt lat="48.79637" lon="2.27801">
        <ele>152.72</ele>
        <time>2016-01-17T09:46:12Z</time>
      </trkpt>
      <trkpt lat="48.79639" lon="2.27804">
        <ele>152.54</ele>
        <time>2016-01-17T09:46:14Z</time>
      </trkpt>
      <trkpt lat="48.79641" lon="2.27809">
        <ele>152.2</ele>
        <time>2016-01-17T09:46:18Z</time>
      </trkpt>
      <trkpt lat="48.79645" lon="2.27821">
        <ele>151.41</ele>
        <time>2016-01-17T09:46:26Z</time>
      </trkpt>
      <trkpt lat="48.79647" lon="2.27829">
        <ele>150.97</ele>
        <time>2016-01-17T09:46:32Z</time>
      </trkpt>
      <trkpt lat="48.79654" lon="2.27841">
        <ele>150.15</ele>
        <time>2016-01-17T09:46:41Z</time>
      </trkpt>
      <trkpt lat="48.79665" lon="2.27863">
        <ele>148.43</ele>
        <time>2016-01-17T09:46:57Z</time>
      </trkpt>
      <trkpt lat="48.79667" lon="2.27865">
        <ele>148.22</ele>
        <time>2016-01-17T09:46:59Z</time>
      </trkpt>
      <trkpt lat="48.79673" lon="2.27884">
        <ele>146.86</ele>
        <time>2016-01-17T09:47:12Z</time>
      </trkpt>
      <trkpt lat="48.79676" lon="2.27912">
        <ele>145.31</ele>
        <time>2016-01-17T09:47:28Z</time>
      </trkpt>
      <trkpt lat="48.79677" lon="2.27918">
        <ele>144.84</ele>
        <time>2016-01-17T09:47:32Z</time>
      </trkpt>
      <trkpt lat="48.79679" lon="2.27939">
        <ele>143.58</ele>
        <time>2016-01-17T09:47:45Z</time>
      </trkpt>
      <trkpt lat="48.79685" lon="2.27933">
        <ele>143.12</ele>
        <time>2016-01-17T09:47:59Z</time>
      </trkpt>
      <trkpt lat="48.79695" lon="2.27928">
        <ele>143.54</ele>
        <time>2016-01-17T09:48:11Z</time>
      </trkpt>
      <trkpt lat="48.79705" lon="2.27924">
        <ele>143.78</ele>
        <time>2016-01-17T09:48:21Z</time>
      </trkpt>
      <trkpt lat="48.79715" lon="2.27917">
        <ele>143.81</ele>
        <time>2016-01-17T09:48:31Z</time>
      </trkpt>
      <trkpt lat="48.79727" lon="2.27911">
        <ele>143.72</ele>
        <time>2016-01-17T09:48:43Z</time>
      </trkpt>
      <trkpt lat="48.79737" lon="2.27915">
        <ele>143.53</ele>
        <time>2016-01-17T09:48:51Z</time>
      </trkpt>
      <trkpt lat="48.79743" lon="2.27927">
        <ele>142.73</ele>
        <time>2016-01-17T09:49:06Z</time>
      </trkpt>
      <trkpt lat="48.79753" lon="2.27927">
        <ele>142.74</ele>
        <time>2016-01-17T09:49:34Z</time>
      </trkpt>
      <trkpt lat="48.79759" lon="2.27928">
        <ele>142.11</ele>
        <time>2016-01-17T09:49:52Z</time>
      </trkpt>
      <trkpt lat="48.79759" lon="2.27937">
        <ele>138.99</ele>
        <time>2016-01-17T09:50:13Z</time>
      </trkpt>
      <trkpt lat="48.79759" lon="2.27938">
        <ele>138.86</ele>
        <time>2016-01-17T09:50:14Z</time>
      </trkpt>
      <trkpt lat="48.79765" lon="2.2795">
        <ele>137.33</ele>
        <time>2016-01-17T09:50:30Z</time>
      </trkpt>
      <trkpt lat="48.79774" lon="2.27959">
        <ele>136.19</ele>
        <time>2016-01-17T09:50:49Z</time>
      </trkpt>
      <trkpt lat="48.79787" lon="2.27974">
        <ele>135.31</ele>
        <time>2016-01-17T09:51:13Z</time>
      </trkpt>
      <trkpt lat="48.79786" lon="2.27986">
        <ele>134.47</ele>
        <time>2016-01-17T09:51:23Z</time>
      </trkpt>
      <trkpt lat="48.79781" lon="2.28">
        <ele>133.88</ele>
        <time>2016-01-17T09:51:31Z</time>
      </trkpt>
      <trkpt lat="48.79781" lon="2.28015">
        <ele>133.14</ele>
        <time>2016-01-17T09:51:43Z</time>
      </trkpt>
      <trkpt lat="48.79784" lon="2.28024">
        <ele>132.59</ele>
        <time>2016-01-17T09:52:04Z</time>
      </trkpt>
      <trkpt lat="48.79782" lon="2.28023">
        <ele>131.96</ele>
        <time>2016-01-17T09:52:31Z</time>
      </trkpt>
      <trkpt lat="48.79789" lon="2.28021">
        <ele>131.93</ele>
        <time>2016-01-17T09:52:45Z</time>
      </trkpt>
      <trkpt lat="48.79791" lon="2.2802">
        <ele>131.95</ele>
        <time>2016-01-17T09:52:47Z</time>
      </trkpt>
      <trkpt lat="48.79793" lon="2.28027">
        <ele>131.72</ele>
        <time>2016-01-17T09:52:59Z</time>
      </trkpt>
      <trkpt lat="48.79805" lon="2.28033">
        <ele>130.78</ele>
        <time>2016-01-17T09:53:13Z</time>
      </trkpt>
      <trkpt lat="48.79816" lon="2.28058">
        <ele>128.96</ele>
        <time>2016-01-17T09:53:37Z</time>
      </trkpt>
      <trkpt lat="48.79843" lon="2.2808">
        <ele>126.65</ele>
        <time>2016-01-17T09:54:07Z</time>
      </trkpt>
      <trkpt lat="48.7986" lon="2.2811">
        <ele>124.53</ele>
        <time>2016-01-17T09:54:36Z</time>
      </trkpt>
      <trkpt lat="48.79861" lon="2.28114">
        <ele>124.36</ele>
        <time>2016-01-17T09:54:39Z</time>
      </trkpt>
      <trkpt lat="48.79875" lon="2.28159">
        <ele>122.87</ele>
        <time>2016-01-17T09:55:07Z</time>
      </trkpt>
      <trkpt lat="48.79883" lon="2.28186">
        <ele>121.83</ele>
        <time>2016-01-17T09:55:27Z</time>
      </trkpt>
      <trkpt lat="48.79892" lon="2.28196">
        <ele>121.67</ele>
        <time>2016-01-17T09:55:36Z</time>
      </trkpt>
      <trkpt lat="48.79899" lon="2.28197">
        <ele>121.68</ele>
        <time>2016-01-17T09:55:41Z</time>
      </trkpt>
      <trkpt lat="48.79904" lon="2.28198">
        <ele>121.8</ele>
        <time>2016-01-17T09:55:45Z</time>
      </trkpt>
      <trkpt lat="48.79922" lon="2.28198">
        <ele>121.5</ele>
        <time>2016-01-17T09:56:02Z</time>
      </trkpt>
      <trkpt lat="48.79929" lon="2.28189">
        <ele>121.34</ele>
        <time>2016-01-17T09:56:09Z</time>
      </trkpt>
      <trkpt lat="48.79938" lon="2.28174">
        <ele>121.46</ele>
        <time>2016-01-17T09:56:28Z</time>
      </trkpt>
      <trkpt lat="48.79941" lon="2.28177">
        <ele>118.77</ele>
        <time>2016-01-17T09:56:52Z</time>
      </trkpt>
      <trkpt lat="48.79941" lon="2.28177">
        <ele>117.9</ele>
        <time>2016-01-17T09:56:57Z</time>
      </trkpt>
      <trkpt lat="48.79949" lon="2.28157">
        <ele>115.75</ele>
        <time>2016-01-17T09:57:11Z</time>
      </trkpt>
      <trkpt lat="48.79952" lon="2.28166">
        <ele>114.74</ele>
        <time>2016-01-17T09:57:22Z</time>
      </trkpt>
      <trkpt lat="48.79951" lon="2.28168">
        <ele>114.3</ele>
        <time>2016-01-17T09:57:42Z</time>
      </trkpt>
      <trkpt lat="48.7995" lon="2.28164">
        <ele>114.31</ele>
        <time>2016-01-17T09:58:10Z</time>
      </trkpt>
      <trkpt lat="48.79954" lon="2.28165">
        <ele>113.98</ele>
        <time>2016-01-17T09:58:40Z</time>
      </trkpt>
      <trkpt lat="48.7995" lon="2.28167">
        <ele>114.13</ele>
        <time>2016-01-17T09:59:08Z</time>
      </trkpt>
      <trkpt lat="48.79953" lon="2.28171">
        <ele>113.94</ele>
        <time>2016-01-17T09:59:35Z</time>
      </trkpt>
      <trkpt lat="48.79957" lon="2.28169">
        <ele>113.95</ele>
        <time>2016-01-17T10:00:01Z</time>
      </trkpt>
      <trkpt lat="48.79957" lon="2.28168">
        <ele>113.98</ele>
        <time>2016-01-17T10:00:25Z</time>
      </trkpt>
      <trkpt lat="48.79958" lon="2.28172">
        <ele>114.09</ele>
        <time>2016-01-17T10:00:49Z</time>
      </trkpt>
      <trkpt lat="48.79956" lon="2.28167">
        <ele>113.88</ele>
        <time>2016-01-17T10:01:17Z</time>
      </trkpt>
      <trkpt lat="48.79955" lon="2.28166">
        <ele>113.93</ele>
        <time>2016-01-17T10:01:45Z</time>
      </trkpt>
      <trkpt lat="48.79957" lon="2.28166">
        <ele>113.95</ele>
        <time>2016-01-17T10:02:13Z</time>
      </trkpt>
      <trkpt lat="48.7996" lon="2.28172">
        <ele>113.83</ele>
        <time>2016-01-17T10:02:42Z</time>
      </trkpt>
      <trkpt lat="48.79964" lon="2.28186">
        <ele>113.32</ele>
        <time>2016-01-17T10:02:56Z</time>
      </trkpt>
      <trkpt lat="48.79974" lon="2.28204">
        <ele>112.74</ele>
        <time>2016-01-17T10:03:12Z</time>
      </trkpt>
      <trkpt lat="48.79979" lon="2.28209">
        <ele>112.3</ele>
        <time>2016-01-17T10:03:18Z</time>
      </trkpt>
      <trkpt lat="48.79984" lon="2.28215">
        <ele>111.67</ele>
        <time>2016-01-17T10:03:24Z</time>
      </trkpt>
      <trkpt lat="48.79988" lon="2.28223">
        <ele>111.29</ele>
        <time>2016-01-17T10:03:30Z</time>
      </trkpt>
      <trkpt lat="48.79997" lon="2.28239">
        <ele>110.27</ele>
        <time>2016-01-17T10:03:43Z</time>
      </trkpt>
      <trkpt lat="48.80005" lon="2.28252">
        <ele>109.45</ele>
        <time>2016-01-17T10:03:53Z</time>
      </trkpt>
      <trkpt lat="48.80009" lon="2.28258">
        <ele>109.24</ele>
        <time>2016-01-17T10:03:58Z</time>
      </trkpt>
      <trkpt lat="48.8002" lon="2.28275">
        <ele>108.46</ele>
        <time>2016-01-17T10:04:11Z</time>
      </trkpt>
      <trkpt lat="48.80022" lon="2.2828">
        <ele>108.36</ele>
        <time>2016-01-17T10:04:14Z</time>
      </trkpt>
      <trkpt lat="48.80024" lon="2.28286">
        <ele>108.2</ele>
        <time>2016-01-17T10:04:18Z</time>
      </trkpt>
      <trkpt lat="48.8003" lon="2.28298">
        <ele>107.59</ele>
        <time>2016-01-17T10:04:27Z</time>
      </trkpt>
      <trkpt lat="48.80034" lon="2.28306">
        <ele>107.21</ele>
        <time>2016-01-17T10:04:33Z</time>
      </trkpt>
      <trkpt lat="48.80037" lon="2.2831">
        <ele>106.97</ele>
        <time>2016-01-17T10:04:36Z</time>
      </trkpt>
      <trkpt lat="48.8004" lon="2.28318">
        <ele>106.78</ele>
        <time>2016-01-17T10:04:41Z</time>
      </trkpt>
      <trkpt lat="48.80048" lon="2.28334">
        <ele>106.08</ele>
        <time>2016-01-17T10:04:53Z</time>
      </trkpt>
      <trkpt lat="48.80061" lon="2.28363">
        <ele>104.7</ele>
        <time>2016-01-17T10:05:15Z</time>
      </trkpt>
      <trkpt lat="48.80062" lon="2.28368">
        <ele>104.71</ele>
        <time>2016-01-17T10:05:19Z</time>
      </trkpt>
      <trkpt lat="48.80061" lon="2.28375">
        <ele>104.69</ele>
        <time>2016-01-17T10:05:23Z</time>
      </trkpt>
      <trkpt lat="48.80061" lon="2.2839">
        <ele>104.69</ele>
        <time>2016-01-17T10:05:38Z</time>
      </trkpt>
      <trkpt lat="48.8006" lon="2.28392">
        <ele>104.83</ele>
        <time>2016-01-17T10:05:40Z</time>
      </trkpt>
      <trkpt lat="48.80049" lon="2.28412">
        <ele>105.6</ele>
        <time>2016-01-17T10:05:56Z</time>
      </trkpt>
      <trkpt lat="48.80044" lon="2.28421">
        <ele>105.83</ele>
        <time>2016-01-17T10:06:03Z</time>
      </trkpt>
      <trkpt lat="48.80037" lon="2.28436">
        <ele>105.89</ele>
        <time>2016-01-17T10:06:14Z</time>
      </trkpt>
      <trkpt lat="48.80035" lon="2.28438">
        <ele>105.94</ele>
        <time>2016-01-17T10:06:16Z</time>
      </trkpt>
      <trkpt lat="48.80029" lon="2.28451">
        <ele>105.87</ele>
        <time>2016-01-17T10:06:27Z</time>
      </trkpt>
      <trkpt lat="48.80028" lon="2.28454">
        <ele>105.85</ele>
        <time>2016-01-17T10:06:30Z</time>
      </trkpt>
      <trkpt lat="48.80025" lon="2.28463">
        <ele>105.87</ele>
        <time>2016-01-17T10:06:38Z</time>
      </trkpt>
      <trkpt lat="48.8002" lon="2.28484">
        <ele>105.81</ele>
        <time>2016-01-17T10:06:52Z</time>
      </trkpt>
      <trkpt lat="48.80018" lon="2.28486">
        <ele>105.7</ele>
        <time>2016-01-17T10:06:54Z</time>
      </trkpt>
      <trkpt lat="48.80012" lon="2.28491">
        <ele>105.52</ele>
        <time>2016-01-17T10:07:01Z</time>
      </trkpt>
      <trkpt lat="48.80006" lon="2.285">
        <ele>105.11</ele>
        <time>2016-01-17T10:07:08Z</time>
      </trkpt>
      <trkpt lat="48.80002" lon="2.28508">
        <ele>105.03</ele>
        <time>2016-01-17T10:07:16Z</time>
      </trkpt>
      <trkpt lat="48.79995" lon="2.28514">
        <ele>104.83</ele>
        <time>2016-01-17T10:07:21Z</time>
      </trkpt>
      <trkpt lat="48.79988" lon="2.28517">
        <ele>104.86</ele>
        <time>2016-01-17T10:07:25Z</time>
      </trkpt>
      <trkpt lat="48.79979" lon="2.28538">
        <ele>104.92</ele>
        <time>2016-01-17T10:07:38Z</time>
      </trkpt>
      <trkpt lat="48.79977" lon="2.28551">
        <ele>104.58</ele>
        <time>2016-01-17T10:07:58Z</time>
      </trkpt>
      <trkpt lat="48.79969" lon="2.28562">
        <ele>104.72</ele>
        <time>2016-01-17T10:08:08Z</time>
      </trkpt>
      <trkpt lat="48.79967" lon="2.2858">
        <ele>104.89</ele>
        <time>2016-01-17T10:08:29Z</time>
      </trkpt>
      <trkpt lat="48.7996" lon="2.28596">
        <ele>104.98</ele>
        <time>2016-01-17T10:08:45Z</time>
      </trkpt>
      <trkpt lat="48.79953" lon="2.28613">
        <ele>105.02</ele>
        <time>2016-01-17T10:09:09Z</time>
      </trkpt>
      <trkpt lat="48.79947" lon="2.28631">
        <ele>106.42</ele>
        <time>2016-01-17T10:09:27Z</time>
      </trkpt>
      <trkpt lat="48.79943" lon="2.28635">
        <ele>106.57</ele>
        <time>2016-01-17T10:09:32Z</time>
      </trkpt>
      <trkpt lat="48.79928" lon="2.28658">
        <ele>107.22</ele>
        <time>2016-01-17T10:09:52Z</time>
      </trkpt>
      <trkpt lat="48.79925" lon="2.28671">
        <ele>107.56</ele>
        <time>2016-01-17T10:10:10Z</time>
      </trkpt>
      <trkpt lat="48.79918" lon="2.2869">
        <ele>108.54</ele>
        <time>2016-01-17T10:10:29Z</time>
      </trkpt>
      <trkpt lat="48.79923" lon="2.287">
        <ele>108.97</ele>
        <time>2016-01-17T10:10:38Z</time>
      </trkpt>
      <trkpt lat="48.79942" lon="2.2873">
        <ele>109.15</ele>
        <time>2016-01-17T10:11:00Z</time>
      </trkpt>
      <trkpt lat="48.79957" lon="2.28755">
        <ele>109.02</ele>
        <time>2016-01-17T10:11:20Z</time>
      </trkpt>
      <trkpt lat="48.7996" lon="2.28759">
        <ele>108.86</ele>
        <time>2016-01-17T10:11:23Z</time>
      </trkpt>
      <trkpt lat="48.79963" lon="2.28763">
        <ele>109.01</ele>
        <time>2016-01-17T10:11:27Z</time>
      </trkpt>
      <trkpt lat="48.79968" lon="2.28771">
        <ele>108.97</ele>
        <time>2016-01-17T10:11:34Z</time>
      </trkpt>
      <trkpt lat="48.79973" lon="2.28776">
        <ele>108.74</ele>
        <time>2016-01-17T10:11:39Z</time>
      </trkpt>
      <trkpt lat="48.79983" lon="2.28793">
        <ele>108.92</ele>
        <time>2016-01-17T10:11:54Z</time>
      </trkpt>
      <trkpt lat="48.79999" lon="2.28821">
        <ele>107.96</ele>
        <time>2016-01-17T10:12:18Z</time>
      </trkpt>
      <trkpt lat="48.80008" lon="2.28839">
        <ele>108.45</ele>
        <time>2016-01-17T10:12:36Z</time>
      </trkpt>
      <trkpt lat="48.8002" lon="2.28852">
        <ele>106.31</ele>
        <time>2016-01-17T10:12:53Z</time>
      </trkpt>
      <trkpt lat="48.80031" lon="2.28858">
        <ele>104.45</ele>
        <time>2016-01-17T10:13:07Z</time>
      </trkpt>
      <trkpt lat="48.80034" lon="2.28857">
        <ele>104.33</ele>
        <time>2016-01-17T10:13:08Z</time>
      </trkpt>
      <trkpt lat="48.80039" lon="2.28858">
        <ele>104.03</ele>
        <time>2016-01-17T10:13:12Z</time>
      </trkpt>
      <trkpt lat="48.80045" lon="2.28856">
        <ele>103.85</ele>
        <time>2016-01-17T10:13:15Z</time>
      </trkpt>
      <trkpt lat="48.80043" lon="2.28872">
        <ele>102.63</ele>
        <time>2016-01-17T10:13:32Z</time>
      </trkpt>
      <trkpt lat="48.80043" lon="2.28878">
        <ele>102.71</ele>
        <time>2016-01-17T10:13:36Z</time>
      </trkpt>
      <trkpt lat="48.80045" lon="2.28902">
        <ele>103.05</ele>
        <time>2016-01-17T10:13:53Z</time>
      </trkpt>
      <trkpt lat="48.80049" lon="2.28908">
        <ele>103.61</ele>
        <time>2016-01-17T10:13:59Z</time>
      </trkpt>
      <trkpt lat="48.80068" lon="2.28917">
        <ele>103.83</ele>
        <time>2016-01-17T10:14:17Z</time>
      </trkpt>
      <trkpt lat="48.80072" lon="2.2892">
        <ele>103.85</ele>
        <time>2016-01-17T10:14:20Z</time>
      </trkpt>
      <trkpt lat="48.80085" lon="2.28928">
        <ele>103.63</ele>
        <time>2016-01-17T10:14:31Z</time>
      </trkpt>
      <trkpt lat="48.80089" lon="2.28937">
        <ele>103.35</ele>
        <time>2016-01-17T10:14:38Z</time>
      </trkpt>
      <trkpt lat="48.80093" lon="2.28942">
        <ele>103.15</ele>
        <time>2016-01-17T10:14:43Z</time>
      </trkpt>
      <trkpt lat="48.80108" lon="2.28956">
        <ele>102.45</ele>
        <time>2016-01-17T10:14:58Z</time>
      </trkpt>
      <trkpt lat="48.80117" lon="2.28969">
        <ele>101.96</ele>
        <time>2016-01-17T10:15:16Z</time>
      </trkpt>
      <trkpt lat="48.80124" lon="2.28974">
        <ele>102.2</ele>
        <time>2016-01-17T10:15:37Z</time>
      </trkpt>
      <trkpt lat="48.80122" lon="2.28974">
        <ele>102.07</ele>
        <time>2016-01-17T10:16:02Z</time>
      </trkpt>
      <trkpt lat="48.80122" lon="2.28975">
        <ele>101.91</ele>
        <time>2016-01-17T10:16:24Z</time>
      </trkpt>
      <trkpt lat="48.80121" lon="2.28973">
        <ele>102.15</ele>
        <time>2016-01-17T10:16:48Z</time>
      </trkpt>
      <trkpt lat="48.80121" lon="2.28973">
        <ele>101.99</ele>
        <time>2016-01-17T10:17:19Z</time>
      </trkpt>
      <trkpt lat="48.80119" lon="2.28972">
        <ele>102.03</ele>
        <time>2016-01-17T10:17:44Z</time>
      </trkpt>
      <trkpt lat="48.80124" lon="2.2899">
        <ele>102.52</ele>
        <time>2016-01-17T10:18:02Z</time>
      </trkpt>
      <trkpt lat="48.80138" lon="2.2901">
        <ele>102.36</ele>
        <time>2016-01-17T10:18:24Z</time>
      </trkpt>
      <trkpt lat="48.80137" lon="2.29026">
        <ele>102.34</ele>
        <time>2016-01-17T10:18:38Z</time>
      </trkpt>
      <trkpt lat="48.80131" lon="2.29042">
        <ele>101.67</ele>
        <time>2016-01-17T10:18:59Z</time>
      </trkpt>
      <trkpt lat="48.8012" lon="2.29041">
        <ele>101.32</ele>
        <time>2016-01-17T10:19:17Z</time>
      </trkpt>
      <trkpt lat="48.80114" lon="2.29039">
        <ele>101.64</ele>
        <time>2016-01-17T10:19:23Z</time>
      </trkpt>
      <trkpt lat="48.80099" lon="2.29035">
        <ele>102.79</ele>
        <time>2016-01-17T10:19:37Z</time>
      </trkpt>
      <trkpt lat="48.80084" lon="2.29024">
        <ele>103.36</ele>
        <time>2016-01-17T10:19:51Z</time>
      </trkpt>
      <trkpt lat="48.8007" lon="2.29004">
        <ele>103.96</ele>
        <time>2016-01-17T10:20:06Z</time>
      </trkpt>
      <trkpt lat="48.80063" lon="2.28997">
        <ele>104.43</ele>
        <time>2016-01-17T10:20:14Z</time>
      </trkpt>
      <trkpt lat="48.80051" lon="2.28979">
        <ele>105.32</ele>
        <time>2016-01-17T10:20:33Z</time>
      </trkpt>
      <trkpt lat="48.80051" lon="2.28975">
        <ele>105.14</ele>
        <time>2016-01-17T10:20:37Z</time>
      </trkpt>
      <trkpt lat="48.80044" lon="2.28971">
        <ele>105.4</ele>
        <time>2016-01-17T10:20:41Z</time>
      </trkpt>
      <trkpt lat="48.80027" lon="2.28963">
        <ele>105.81</ele>
        <time>2016-01-17T10:21:00Z</time>
      </trkpt>
      <trkpt lat="48.80013" lon="2.2897">
        <ele>105.71</ele>
        <time>2016-01-17T10:21:17Z</time>
      </trkpt>
      <trkpt lat="48.80004" lon="2.2897">
        <ele>106.41</ele>
        <time>2016-01-17T10:21:31Z</time>
      </trkpt>
      <trkpt lat="48.80001" lon="2.28977">
        <ele>106.37</ele>
        <time>2016-01-17T10:21:37Z</time>
      </trkpt>
      <trkpt lat="48.7999" lon="2.29005">
        <ele>106.25</ele>
        <time>2016-01-17T10:21:59Z</time>
      </trkpt>
      <trkpt lat="48.79988" lon="2.29025">
        <ele>105.39</ele>
        <time>2016-01-17T10:22:15Z</time>
      </trkpt>
      <trkpt lat="48.7999" lon="2.29049">
        <ele>105.35</ele>
        <time>2016-01-17T10:22:33Z</time>
      </trkpt>
      <trkpt lat="48.79988" lon="2.29056">
        <ele>105.23</ele>
        <time>2016-01-17T10:22:55Z</time>
      </trkpt>
      <trkpt lat="48.79991" lon="2.29057">
        <ele>105.64</ele>
        <time>2016-01-17T10:23:20Z</time>
      </trkpt>
      <trkpt lat="48.79986" lon="2.29064">
        <ele>105.44</ele>
        <time>2016-01-17T10:23:53Z</time>
      </trkpt>
      <trkpt lat="48.79986" lon="2.29065">
        <ele>105.76</ele>
        <time>2016-01-17T10:24:19Z</time>
      </trkpt>
      <trkpt lat="48.79987" lon="2.29069">
        <ele>105.88</ele>
        <time>2016-01-17T10:24:44Z</time>
      </trkpt>
      <trkpt lat="48.79986" lon="2.29078">
        <ele>106.08</ele>
        <time>2016-01-17T10:25:02Z</time>
      </trkpt>
      <trkpt lat="48.79975" lon="2.29072">
        <ele>105.09</ele>
        <time>2016-01-17T10:25:17Z</time>
      </trkpt>
      <trkpt lat="48.79961" lon="2.29072">
        <ele>105.05</ele>
        <time>2016-01-17T10:25:32Z</time>
      </trkpt>
      <trkpt lat="48.79957" lon="2.29079">
        <ele>104.88</ele>
        <time>2016-01-17T10:25:39Z</time>
      </trkpt>
      <trkpt lat="48.79945" lon="2.29097">
        <ele>103.75</ele>
        <time>2016-01-17T10:26:01Z</time>
      </trkpt>
      <trkpt lat="48.79935" lon="2.29111">
        <ele>103.18</ele>
        <time>2016-01-17T10:26:16Z</time>
      </trkpt>
      <trkpt lat="48.79923" lon="2.29136">
        <ele>102.4</ele>
        <time>2016-01-17T10:26:35Z</time>
      </trkpt>
      <trkpt lat="48.79923" lon="2.29141">
        <ele>102.25</ele>
        <time>2016-01-17T10:26:38Z</time>
      </trkpt>
      <trkpt lat="48.79933" lon="2.29156">
        <ele>102.22</ele>
        <time>2016-01-17T10:26:53Z</time>
      </trkpt>
      <trkpt lat="48.79936" lon="2.29172">
        <ele>101.59</ele>
        <time>2016-01-17T10:27:11Z</time>
      </trkpt>
      <trkpt lat="48.79936" lon="2.29182">
        <ele>101.73</ele>
        <time>2016-01-17T10:27:33Z</time>
      </trkpt>
      <trkpt lat="48.79931" lon="2.29178">
        <ele>101.65</ele>
        <time>2016-01-17T10:28:01Z</time>
      </trkpt>
      <trkpt lat="48.79941" lon="2.29178">
        <ele>101.36</ele>
        <time>2016-01-17T10:28:23Z</time>
      </trkpt>
      <trkpt lat="48.79954" lon="2.29186">
        <ele>101.14</ele>
        <time>2016-01-17T10:28:43Z</time>
      </trkpt>
      <trkpt lat="48.79968" lon="2.29204">
        <ele>100.65</ele>
        <time>2016-01-17T10:29:04Z</time>
      </trkpt>
      <trkpt lat="48.79971" lon="2.29227">
        <ele>99.4</ele>
        <time>2016-01-17T10:29:26Z</time>
      </trkpt>
      <trkpt lat="48.79965" lon="2.29239">
        <ele>98.76</ele>
        <time>2016-01-17T10:29:34Z</time>
      </trkpt>
      <trkpt lat="48.7995" lon="2.29253">
        <ele>98.14</ele>
        <time>2016-01-17T10:29:52Z</time>
      </trkpt>
      <trkpt lat="48.79944" lon="2.2927">
        <ele>97.8</ele>
        <time>2016-01-17T10:30:12Z</time>
      </trkpt>
      <trkpt lat="48.79946" lon="2.29275">
        <ele>97.36</ele>
        <time>2016-01-17T10:30:45Z</time>
      </trkpt>
      <trkpt lat="48.79946" lon="2.29274">
        <ele>97.73</ele>
        <time>2016-01-17T10:31:21Z</time>
      </trkpt>
      <trkpt lat="48.7995" lon="2.29272">
        <ele>97.82</ele>
        <time>2016-01-17T10:31:51Z</time>
      </trkpt>
      <trkpt lat="48.79947" lon="2.29275">
        <ele>97.72</ele>
        <time>2016-01-17T10:32:19Z</time>
      </trkpt>
      <trkpt lat="48.79946" lon="2.29272">
        <ele>97.87</ele>
        <time>2016-01-17T10:32:48Z</time>
      </trkpt>
      <trkpt lat="48.79945" lon="2.29276">
        <ele>97.8</ele>
        <time>2016-01-17T10:33:17Z</time>
      </trkpt>
      <trkpt lat="48.79944" lon="2.29278">
        <ele>98.05</ele>
        <time>2016-01-17T10:33:45Z</time>
      </trkpt>
      <trkpt lat="48.79948" lon="2.2928">
        <ele>98.26</ele>
        <time>2016-01-17T10:33:53Z</time>
      </trkpt>
      <trkpt lat="48.79954" lon="2.29285">
        <ele>98.24</ele>
        <time>2016-01-17T10:34:01Z</time>
      </trkpt>
      <trkpt lat="48.79964" lon="2.29299">
        <ele>97.83</ele>
        <time>2016-01-17T10:34:17Z</time>
      </trkpt>
      <trkpt lat="48.79967" lon="2.29307">
        <ele>97.58</ele>
        <time>2016-01-17T10:34:23Z</time>
      </trkpt>
      <trkpt lat="48.79979" lon="2.29319">
        <ele>97.17</ele>
        <time>2016-01-17T10:34:38Z</time>
      </trkpt>
      <trkpt lat="48.79981" lon="2.2932">
        <ele>97.16</ele>
        <time>2016-01-17T10:34:40Z</time>
      </trkpt>
      <trkpt lat="48.79984" lon="2.29321">
        <ele>97.11</ele>
        <time>2016-01-17T10:34:42Z</time>
      </trkpt>
      <trkpt lat="48.79997" lon="2.29338">
        <ele>96.67</ele>
        <time>2016-01-17T10:34:57Z</time>
      </trkpt>
      <trkpt lat="48.80015" lon="2.29348">
        <ele>96.58</ele>
        <time>2016-01-17T10:35:15Z</time>
      </trkpt>
      <trkpt lat="48.80017" lon="2.29348">
        <ele>96.59</ele>
        <time>2016-01-17T10:35:17Z</time>
      </trkpt>
      <trkpt lat="48.80025" lon="2.29346">
        <ele>96.58</ele>
        <time>2016-01-17T10:35:24Z</time>
      </trkpt>
      <trkpt lat="48.80027" lon="2.29346">
        <ele>96.48</ele>
        <time>2016-01-17T10:35:26Z</time>
      </trkpt>
      <trkpt lat="48.80036" lon="2.29342">
        <ele>96.36</ele>
        <time>2016-01-17T10:35:34Z</time>
      </trkpt>
      <trkpt lat="48.80048" lon="2.29328">
        <ele>97.38</ele>
        <time>2016-01-17T10:35:48Z</time>
      </trkpt>
      <trkpt lat="48.80053" lon="2.29321">
        <ele>97.79</ele>
        <time>2016-01-17T10:35:56Z</time>
      </trkpt>
      <trkpt lat="48.80056" lon="2.29319">
        <ele>97.88</ele>
        <time>2016-01-17T10:35:58Z</time>
      </trkpt>
      <trkpt lat="48.80064" lon="2.29307">
        <ele>98.7</ele>
        <time>2016-01-17T10:36:13Z</time>
      </trkpt>
      <trkpt lat="48.80065" lon="2.29318">
        <ele>98.56</ele>
        <time>2016-01-17T10:36:32Z</time>
      </trkpt>
      <trkpt lat="48.80076" lon="2.29342">
        <ele>96.93</ele>
        <time>2016-01-17T10:36:55Z</time>
      </trkpt>
      <trkpt lat="48.8008" lon="2.29346">
        <ele>96.27</ele>
        <time>2016-01-17T10:37:05Z</time>
      </trkpt>
      <trkpt lat="48.80084" lon="2.29361">
        <ele>95.25</ele>
        <time>2016-01-17T10:37:28Z</time>
      </trkpt>
      <trkpt lat="48.80083" lon="2.29364">
        <ele>94.93</ele>
        <time>2016-01-17T10:37:55Z</time>
      </trkpt>
      <trkpt lat="48.80085" lon="2.29365">
        <ele>95.03</ele>
        <time>2016-01-17T10:38:21Z</time>
      </trkpt>
      <trkpt lat="48.80087" lon="2.29366">
        <ele>94.79</ele>
        <time>2016-01-17T10:38:50Z</time>
      </trkpt>
      <trkpt lat="48.80084" lon="2.29364">
        <ele>94.82</ele>
        <time>2016-01-17T10:39:16Z</time>
      </trkpt>
      <trkpt lat="48.80082" lon="2.29368">
        <ele>94.9</ele>
        <time>2016-01-17T10:39:46Z</time>
      </trkpt>
      <trkpt lat="48.80083" lon="2.29371">
        <ele>95.16</ele>
        <time>2016-01-17T10:40:13Z</time>
      </trkpt>
      <trkpt lat="48.80086" lon="2.2937">
        <ele>95.23</ele>
        <time>2016-01-17T10:40:44Z</time>
      </trkpt>
      <trkpt lat="48.80089" lon="2.29371">
        <ele>95.45</ele>
        <time>2016-01-17T10:41:16Z</time>
      </trkpt>
      <trkpt lat="48.80085" lon="2.29369">
        <ele>95.33</ele>
        <time>2016-01-17T10:41:44Z</time>
      </trkpt>
      <trkpt lat="48.80078" lon="2.29371">
        <ele>95.42</ele>
        <time>2016-01-17T10:42:05Z</time>
      </trkpt>
      <trkpt lat="48.80071" lon="2.29373">
        <ele>95.17</ele>
        <time>2016-01-17T10:42:26Z</time>
      </trkpt>
      <trkpt lat="48.80061" lon="2.29376">
        <ele>95.06</ele>
        <time>2016-01-17T10:42:45Z</time>
      </trkpt>
      <trkpt lat="48.80059" lon="2.29375">
        <ele>94.9</ele>
        <time>2016-01-17T10:42:52Z</time>
      </trkpt>
      <trkpt lat="48.80053" lon="2.29371">
        <ele>94.5</ele>
        <time>2016-01-17T10:43:00Z</time>
      </trkpt>
      <trkpt lat="48.80049" lon="2.29367">
        <ele>94.39</ele>
        <time>2016-01-17T10:43:18Z</time>
      </trkpt>
      <trkpt lat="48.80038" lon="2.29371">
        <ele>94.26</ele>
        <time>2016-01-17T10:43:31Z</time>
      </trkpt>
      <trkpt lat="48.8003" lon="2.29373">
        <ele>94.3</ele>
        <time>2016-01-17T10:43:39Z</time>
      </trkpt>
      <trkpt lat="48.80019" lon="2.29386">
        <ele>94.18</ele>
        <time>2016-01-17T10:43:58Z</time>
      </trkpt>
      <trkpt lat="48.80017" lon="2.29387">
        <ele>94.09</ele>
        <time>2016-01-17T10:44:00Z</time>
      </trkpt>
      <trkpt lat="48.80015" lon="2.29387">
        <ele>93.8</ele>
        <time>2016-01-17T10:44:06Z</time>
      </trkpt>
      <trkpt lat="48.79988" lon="2.29409">
        <ele>93.78</ele>
        <time>2016-01-17T10:44:15Z</time>
      </trkpt>
      <trkpt lat="48.79978" lon="2.29415">
        <ele>93.74</ele>
        <time>2016-01-17T10:44:24Z</time>
      </trkpt>
      <trkpt lat="48.79952" lon="2.2943">
        <ele>93.78</ele>
        <time>2016-01-17T10:44:46Z</time>
      </trkpt>
      <trkpt lat="48.79946" lon="2.29434">
        <ele>93.86</ele>
        <time>2016-01-17T10:44:52Z</time>
      </trkpt>
      <trkpt lat="48.79934" lon="2.29441">
        <ele>93.56</ele>
        <time>2016-01-17T10:45:05Z</time>
      </trkpt>
      <trkpt lat="48.79928" lon="2.29444">
        <ele>93.6</ele>
        <time>2016-01-17T10:45:14Z</time>
      </trkpt>
      <trkpt lat="48.79899" lon="2.29432">
        <ele>93.69</ele>
        <time>2016-01-17T10:45:28Z</time>
      </trkpt>
      <trkpt lat="48.79882" lon="2.29442">
        <ele>93.43</ele>
        <time>2016-01-17T10:45:43Z</time>
      </trkpt>
      <trkpt lat="48.79879" lon="2.29443">
        <ele>93.37</ele>
        <time>2016-01-17T10:45:46Z</time>
      </trkpt>
      <trkpt lat="48.79876" lon="2.29447">
        <ele>93.27</ele>
        <time>2016-01-17T10:45:51Z</time>
      </trkpt>
      <trkpt lat="48.79864" lon="2.29455">
        <ele>93.12</ele>
        <time>2016-01-17T10:46:08Z</time>
      </trkpt>
      <trkpt lat="48.79863" lon="2.29465">
        <ele>92.48</ele>
        <time>2016-01-17T10:46:32Z</time>
      </trkpt>
      <trkpt lat="48.79871" lon="2.2948">
        <ele>91.97</ele>
        <time>2016-01-17T10:46:51Z</time>
      </trkpt>
      <trkpt lat="48.79884" lon="2.29497">
        <ele>91.42</ele>
        <time>2016-01-17T10:47:10Z</time>
      </trkpt>
      <trkpt lat="48.79902" lon="2.29514">
        <ele>91.14</ele>
        <time>2016-01-17T10:47:26Z</time>
      </trkpt>
      <trkpt lat="48.79922" lon="2.29526">
        <ele>90.95</ele>
        <time>2016-01-17T10:47:45Z</time>
      </trkpt>
      <trkpt lat="48.79939" lon="2.29528">
        <ele>90.52</ele>
        <time>2016-01-17T10:48:04Z</time>
      </trkpt>
      <trkpt lat="48.79953" lon="2.29536">
        <ele>90.18</ele>
        <time>2016-01-17T10:48:20Z</time>
      </trkpt>
      <trkpt lat="48.7997" lon="2.29544">
        <ele>89.72</ele>
        <time>2016-01-17T10:48:38Z</time>
      </trkpt>
      <trkpt lat="48.7999" lon="2.29553">
        <ele>89.51</ele>
        <time>2016-01-17T10:48:58Z</time>
      </trkpt>
      <trkpt lat="48.80012" lon="2.29561">
        <ele>88.87</ele>
        <time>2016-01-17T10:49:16Z</time>
      </trkpt>
      <trkpt lat="48.80029" lon="2.29569">
        <ele>88.57</ele>
        <time>2016-01-17T10:49:33Z</time>
      </trkpt>
      <trkpt lat="48.80043" lon="2.29571">
        <ele>88.13</ele>
        <time>2016-01-17T10:49:47Z</time>
      </trkpt>
      <trkpt lat="48.80045" lon="2.2957">
        <ele>88.07</ele>
        <time>2016-01-17T10:49:50Z</time>
      </trkpt>
      <trkpt lat="48.80047" lon="2.29567">
        <ele>88.19</ele>
        <time>2016-01-17T10:49:54Z</time>
      </trkpt>
      <trkpt lat="48.80071" lon="2.29579">
        <ele>88.21</ele>
        <time>2016-01-17T10:50:14Z</time>
      </trkpt>
      <trkpt lat="48.80087" lon="2.29581">
        <ele>88.38</ele>
        <time>2016-01-17T10:50:29Z</time>
      </trkpt>
      <trkpt lat="48.80102" lon="2.2957">
        <ele>88.43</ele>
        <time>2016-01-17T10:50:46Z</time>
      </trkpt>
      <trkpt lat="48.80127" lon="2.2955">
        <ele>88.84</ele>
        <time>2016-01-17T10:51:11Z</time>
      </trkpt>
      <trkpt lat="48.80157" lon="2.29544">
        <ele>89.96</ele>
        <time>2016-01-17T10:51:36Z</time>
      </trkpt>
      <trkpt lat="48.80168" lon="2.29526">
        <ele>90.19</ele>
        <time>2016-01-17T10:51:54Z</time>
      </trkpt>
      <trkpt lat="48.80192" lon="2.29507">
        <ele>90.22</ele>
        <time>2016-01-17T10:52:15Z</time>
      </trkpt>
      <trkpt lat="48.80193" lon="2.29506">
        <ele>90.23</ele>
        <time>2016-01-17T10:52:16Z</time>
      </trkpt>
      <trkpt lat="48.80215" lon="2.29484">
        <ele>91.07</ele>
        <time>2016-01-17T10:52:41Z</time>
      </trkpt>
      <trkpt lat="48.80237" lon="2.29472">
        <ele>91.84</ele>
        <time>2016-01-17T10:52:59Z</time>
      </trkpt>
      <trkpt lat="48.80245" lon="2.29468">
        <ele>92.28</ele>
        <time>2016-01-17T10:53:08Z</time>
      </trkpt>
      <trkpt lat="48.8025" lon="2.29465">
        <ele>92.48</ele>
        <time>2016-01-17T10:53:13Z</time>
      </trkpt>
      <trkpt lat="48.80264" lon="2.29459">
        <ele>92.71</ele>
        <time>2016-01-17T10:53:28Z</time>
      </trkpt>
      <trkpt lat="48.80273" lon="2.29455">
        <ele>92.72</ele>
        <time>2016-01-17T10:53:39Z</time>
      </trkpt>
      <trkpt lat="48.80291" lon="2.29448">
        <ele>92.7</ele>
        <time>2016-01-17T10:53:57Z</time>
      </trkpt>
      <trkpt lat="48.80298" lon="2.29445">
        <ele>92.6</ele>
        <time>2016-01-17T10:54:04Z</time>
      </trkpt>
      <trkpt lat="48.80311" lon="2.29454">
        <ele>92.14</ele>
        <time>2016-01-17T10:54:24Z</time>
      </trkpt>
      <trkpt lat="48.80333" lon="2.29471">
        <ele>91.59</ele>
        <time>2016-01-17T10:54:44Z</time>
      </trkpt>
      <trkpt lat="48.80345" lon="2.29463">
        <ele>90.83</ele>
        <time>2016-01-17T10:54:59Z</time>
      </trkpt>
      <trkpt lat="48.80355" lon="2.29464">
        <ele>90.75</ele>
        <time>2016-01-17T10:55:03Z</time>
      </trkpt>
      <trkpt lat="48.80371" lon="2.29465">
        <ele>89.91</ele>
        <time>2016-01-17T10:55:20Z</time>
      </trkpt>
      <trkpt lat="48.80384" lon="2.29475">
        <ele>89.03</ele>
        <time>2016-01-17T10:55:35Z</time>
      </trkpt>
      <trkpt lat="48.80401" lon="2.29502">
        <ele>87.79</ele>
        <time>2016-01-17T10:55:53Z</time>
      </trkpt>
      <trkpt lat="48.80402" lon="2.29504">
        <ele>87.75</ele>
        <time>2016-01-17T10:55:54Z</time>
      </trkpt>
      <trkpt lat="48.80413" lon="2.29519">
        <ele>87.15</ele>
        <time>2016-01-17T10:56:08Z</time>
      </trkpt>
      <trkpt lat="48.80427" lon="2.29517">
        <ele>86.59</ele>
        <time>2016-01-17T10:56:18Z</time>
      </trkpt>
      <trkpt lat="48.80438" lon="2.29512">
        <ele>86.51</ele>
        <time>2016-01-17T10:56:24Z</time>
      </trkpt>
      <trkpt lat="48.80453" lon="2.29499">
        <ele>85.93</ele>
        <time>2016-01-17T10:56:41Z</time>
      </trkpt>
      <trkpt lat="48.80479" lon="2.29496">
        <ele>84.65</ele>
        <time>2016-01-17T10:57:05Z</time>
      </trkpt>
      <trkpt lat="48.80494" lon="2.2951">
        <ele>83.57</ele>
        <time>2016-01-17T10:57:21Z</time>
      </trkpt>
      <trkpt lat="48.80515" lon="2.2953">
        <ele>82.33</ele>
        <time>2016-01-17T10:57:46Z</time>
      </trkpt>
      <trkpt lat="48.80518" lon="2.29536">
        <ele>82.27</ele>
        <time>2016-01-17T10:57:50Z</time>
      </trkpt>
      <trkpt lat="48.80532" lon="2.29565">
        <ele>82.85</ele>
        <time>2016-01-17T10:58:16Z</time>
      </trkpt>
      <trkpt lat="48.80547" lon="2.29584">
        <ele>82.42</ele>
        <time>2016-01-17T10:58:36Z</time>
      </trkpt>
      <trkpt lat="48.80559" lon="2.29597">
        <ele>82.01</ele>
        <time>2016-01-17T10:58:50Z</time>
      </trkpt>
      <trkpt lat="48.80565" lon="2.29602">
        <ele>81.81</ele>
        <time>2016-01-17T10:58:54Z</time>
      </trkpt>
      <trkpt lat="48.80572" lon="2.29606">
        <ele>81.53</ele>
        <time>2016-01-17T10:59:01Z</time>
      </trkpt>
      <trkpt lat="48.80579" lon="2.29616">
        <ele>81.43</ele>
        <time>2016-01-17T10:59:09Z</time>
      </trkpt>
      <trkpt lat="48.80593" lon="2.29643">
        <ele>81.68</ele>
        <time>2016-01-17T10:59:32Z</time>
      </trkpt>
      <trkpt lat="48.80609" lon="2.29665">
        <ele>81.97</ele>
        <time>2016-01-17T10:59:49Z</time>
      </trkpt>
      <trkpt lat="48.80613" lon="2.2967">
        <ele>81.98</ele>
        <time>2016-01-17T10:59:52Z</time>
      </trkpt>
      <trkpt lat="48.80615" lon="2.29673">
        <ele>81.99</ele>
        <time>2016-01-17T10:59:54Z</time>
      </trkpt>
      <trkpt lat="48.8063" lon="2.29691">
        <ele>82.16</ele>
        <time>2016-01-17T11:00:15Z</time>
      </trkpt>
      <trkpt lat="48.80631" lon="2.29693">
        <ele>82.15</ele>
        <time>2016-01-17T11:00:16Z</time>
      </trkpt>
      <trkpt lat="48.8064" lon="2.29704">
        <ele>81.93</ele>
        <time>2016-01-17T11:00:28Z</time>
      </trkpt>
      <trkpt lat="48.8065" lon="2.29719">
        <ele>81.13</ele>
        <time>2016-01-17T11:00:43Z</time>
      </trkpt>
      <trkpt lat="48.80663" lon="2.29728">
        <ele>80.49</ele>
        <time>2016-01-17T11:00:56Z</time>
      </trkpt>
      <trkpt lat="48.80665" lon="2.29731">
        <ele>80.37</ele>
        <time>2016-01-17T11:00:59Z</time>
      </trkpt>
      <trkpt lat="48.80687" lon="2.29746">
        <ele>79.23</ele>
        <time>2016-01-17T11:01:18Z</time>
      </trkpt>
      <trkpt lat="48.80696" lon="2.29763">
        <ele>78.16</ele>
        <time>2016-01-17T11:01:31Z</time>
      </trkpt>
      <trkpt lat="48.80707" lon="2.29776">
        <ele>77.36</ele>
        <time>2016-01-17T11:01:43Z</time>
      </trkpt>
      <trkpt lat="48.8071" lon="2.29777">
        <ele>77.25</ele>
        <time>2016-01-17T11:01:46Z</time>
      </trkpt>
      <trkpt lat="48.80724" lon="2.29785">
        <ele>76.85</ele>
        <time>2016-01-17T11:02:00Z</time>
      </trkpt>
      <trkpt lat="48.80727" lon="2.29791">
        <ele>75.99</ele>
        <time>2016-01-17T11:02:14Z</time>
      </trkpt>
      <trkpt lat="48.80738" lon="2.29791">
        <ele>74.71</ele>
        <time>2016-01-17T11:02:36Z</time>
      </trkpt>
      <trkpt lat="48.80739" lon="2.29792">
        <ele>74.72</ele>
        <time>2016-01-17T11:02:37Z</time>
      </trkpt>
      <trkpt lat="48.80744" lon="2.298">
        <ele>74.45</ele>
        <time>2016-01-17T11:02:59Z</time>
      </trkpt>
      <trkpt lat="48.80746" lon="2.29804">
        <ele>74.4</ele>
        <time>2016-01-17T11:03:02Z</time>
      </trkpt>
      <trkpt lat="48.80743" lon="2.29828">
        <ele>74.4</ele>
        <time>2016-01-17T11:03:17Z</time>
      </trkpt>
      <trkpt lat="48.80756" lon="2.29849">
        <ele>74.72</ele>
        <time>2016-01-17T11:03:28Z</time>
      </trkpt>
      <trkpt lat="48.8076" lon="2.29852">
        <ele>74.77</ele>
        <time>2016-01-17T11:03:32Z</time>
      </trkpt>
      <trkpt lat="48.80767" lon="2.29859">
        <ele>74.67</ele>
        <time>2016-01-17T11:03:39Z</time>
      </trkpt>
      <trkpt lat="48.80772" lon="2.29866">
        <ele>74.37</ele>
        <time>2016-01-17T11:03:46Z</time>
      </trkpt>
      <trkpt lat="48.80773" lon="2.29872">
        <ele>74.24</ele>
        <time>2016-01-17T11:03:51Z</time>
      </trkpt>
      <trkpt lat="48.80774" lon="2.29875">
        <ele>74.13</ele>
        <time>2016-01-17T11:03:53Z</time>
      </trkpt>
      <trkpt lat="48.80784" lon="2.29882">
        <ele>73.75</ele>
        <time>2016-01-17T11:04:01Z</time>
      </trkpt>
      <trkpt lat="48.80805" lon="2.29902">
        <ele>73.23</ele>
        <time>2016-01-17T11:04:22Z</time>
      </trkpt>
      <trkpt lat="48.80817" lon="2.29912">
        <ele>73.1</ele>
        <time>2016-01-17T11:04:34Z</time>
      </trkpt>
      <trkpt lat="48.80819" lon="2.29915">
        <ele>73.04</ele>
        <time>2016-01-17T11:04:38Z</time>
      </trkpt>
      <trkpt lat="48.80836" lon="2.29916">
        <ele>73.01</ele>
        <time>2016-01-17T11:04:53Z</time>
      </trkpt>
      <trkpt lat="48.80847" lon="2.29933">
        <ele>72.88</ele>
        <time>2016-01-17T11:05:09Z</time>
      </trkpt>
      <trkpt lat="48.80855" lon="2.29946">
        <ele>73.46</ele>
        <time>2016-01-17T11:05:23Z</time>
      </trkpt>
      <trkpt lat="48.80866" lon="2.29957">
        <ele>72.08</ele>
        <time>2016-01-17T11:05:43Z</time>
      </trkpt>
      <trkpt lat="48.80871" lon="2.29968">
        <ele>71.18</ele>
        <time>2016-01-17T11:05:54Z</time>
      </trkpt>
      <trkpt lat="48.80875" lon="2.29978">
        <ele>70.75</ele>
        <time>2016-01-17T11:06:00Z</time>
      </trkpt>
      <trkpt lat="48.80881" lon="2.30003">
        <ele>70.54</ele>
        <time>2016-01-17T11:06:19Z</time>
      </trkpt>
      <trkpt lat="48.80893" lon="2.30015">
        <ele>70.46</ele>
        <time>2016-01-17T11:06:32Z</time>
      </trkpt>
      <trkpt lat="48.80912" lon="2.30029">
        <ele>70.22</ele>
        <time>2016-01-17T11:06:50Z</time>
      </trkpt>
      <trkpt lat="48.80934" lon="2.30032">
        <ele>69.65</ele>
        <time>2016-01-17T11:07:07Z</time>
      </trkpt>
      <trkpt lat="48.80954" lon="2.30037">
        <ele>69.18</ele>
        <time>2016-01-17T11:07:31Z</time>
      </trkpt>
      <trkpt lat="48.8096" lon="2.30041">
        <ele>69.09</ele>
        <time>2016-01-17T11:07:43Z</time>
      </trkpt>
      <trkpt lat="48.80966" lon="2.30036">
        <ele>68.72</ele>
        <time>2016-01-17T11:08:05Z</time>
      </trkpt>
      <trkpt lat="48.80972" lon="2.30035">
        <ele>67.86</ele>
        <time>2016-01-17T11:08:20Z</time>
      </trkpt>
      <trkpt lat="48.8099" lon="2.30035">
        <ele>67.66</ele>
        <time>2016-01-17T11:08:28Z</time>
      </trkpt>
      <trkpt lat="48.80995" lon="2.30034">
        <ele>62.68</ele>
        <time>2016-01-17T11:08:34Z</time>
      </trkpt>
    </trkseg>
  </trk>
</gpx>